Wetterdaten: Samstag, 18.04.2020
Datum Zeit Temp. Aussen Temp. o. S. Temp +5cm Feuchte Auss Luftdruck Regen Sonnenschein Regendauer Solar Windben Empfang
18.04.2020 00:00 13,4 C 12,2 C 11,1 C 63 % 1015,2 hPa 0,0 l/m 0 min 0 min 0 W/m 3,2 km/h (1 Bft) 100,00 %
18.04.2020 00:02 13,3 C 12,2 C 11,1 C 63 % 1015,2 hPa 0,0 l/m 0 min 0 min 0 W/m 3,2 km/h (1 Bft) 95,00 %
18.04.2020 00:04 13,3 C 12,2 C 11,1 C 63 % 1015,2 hPa 0,0 l/m 0 min 0 min 0 W/m 3,2 km/h (1 Bft) 95,74 %
18.04.2020 00:06 13,3 C 11,7 C 11,1 C 63 % 1015,2 hPa 0,0 l/m 0 min 0 min 0 W/m 6,4 km/h (2 Bft) 95,74 %
18.04.2020 00:08 13,3 C 12,2 C 11,1 C 63 % 1015,2 hPa 0,0 l/m 0 min 0 min 0 W/m 6,4 km/h (2 Bft) 100,00 %
18.04.2020 00:10 13,3 C 12,2 C 11,1 C 63 % 1015,2 hPa 0,0 l/m 0 min 0 min 0 W/m 3,2 km/h (1 Bft) 95,65 %
18.04.2020 00:12 13,2 C 12,2 C 11,1 C 63 % 1015,2 hPa 0,0 l/m 0 min 0 min 0 W/m 3,2 km/h (1 Bft) 97,87 %
18.04.2020 00:14 13,2 C 12,2 C 11,1 C 63 % 1015,2 hPa 0,0 l/m 0 min 0 min 0 W/m 0,0 km/h (0 Bft) 95,74 %
18.04.2020 00:16 13,2 C 11,7 C 11,1 C 63 % 1015,2 hPa 0,0 l/m 0 min 0 min 0 W/m 3,2 km/h (1 Bft) 95,74 %
18.04.2020 00:18 13,2 C 11,7 C 11,1 C 63 % 1015,3 hPa 0,0 l/m 0 min 0 min 0 W/m 3,2 km/h (1 Bft) 93,62 %
18.04.2020 00:20 13,2 C 11,7 C 11,1 C 63 % 1015,2 hPa 0,0 l/m 0 min 0 min 0 W/m 0,0 km/h (0 Bft) 95,74 %
18.04.2020 00:22 13,1 C 11,7 C 11,1 C 64 % 1015,2 hPa 0,0 l/m 0 min 0 min 0 W/m 3,2 km/h (1 Bft) 95,65 %
18.04.2020 00:24 13,1 C 12,2 C 11,1 C 63 % 1015,2 hPa 0,0 l/m 0 min 0 min 0 W/m 3,2 km/h (1 Bft) 95,74 %
18.04.2020 00:26 13,1 C 12,2 C 11,1 C 63 % 1015,2 hPa 0,0 l/m 0 min 0 min 0 W/m 3,2 km/h (1 Bft) 95,74 %
18.04.2020 00:28 13,1 C 12,2 C 11,1 C 63 % 1015,2 hPa 0,0 l/m 0 min 0 min 0 W/m 0,0 km/h (0 Bft) 97,87 %
18.04.2020 00:30 13,1 C 11,7 C 11,1 C 64 % 1015,2 hPa 0,0 l/m 0 min 0 min 0 W/m 3,2 km/h (1 Bft) 93,62 %
18.04.2020 00:32 13,1 C 11,7 C 11,1 C 64 % 1015,2 hPa 0,0 l/m 0 min 0 min 0 W/m 3,2 km/h (1 Bft) 95,74 %
18.04.2020 00:34 13,0 C 11,7 C 11,1 C 64 % 1015,1 hPa 0,0 l/m 0 min 0 min 0 W/m 6,4 km/h (2 Bft) 95,65 %
18.04.2020 00:36 13,0 C 11,7 C 11,1 C 64 % 1015,2 hPa 0,0 l/m 0 min 0 min 0 W/m 3,2 km/h (1 Bft) 95,74 %
18.04.2020 00:38 13,0 C 11,7 C 11,1 C 64 % 1015,2 hPa 0,0 l/m 0 min 0 min 0 W/m 3,2 km/h (1 Bft) 95,74 %
18.04.2020 00:40 12,9 C 11,7 C 11,1 C 64 % 1015,2 hPa 0,0 l/m 0 min 0 min 0 W/m 6,4 km/h (2 Bft) 95,74 %
18.04.2020 00:42 12,9 C 11,7 C 11,1 C 64 % 1015,3 hPa 0,0 l/m 0 min 0 min 0 W/m 6,4 km/h (2 Bft) 95,74 %
18.04.2020 00:44 12,9 C 11,7 C 11,1 C 64 % 1015,3 hPa 0,0 l/m 0 min 0 min 0 W/m 6,4 km/h (2 Bft) 93,62 %
18.04.2020 00:46 12,9 C 11,7 C 11,1 C 64 % 1015,2 hPa 0,0 l/m 0 min 0 min 0 W/m 0,0 km/h (0 Bft) 95,65 %
18.04.2020 00:48 12,9 C 11,7 C 11,1 C 64 % 1015,3 hPa 0,0 l/m 0 min 0 min 0 W/m 0,0 km/h (0 Bft) 95,74 %
18.04.2020 00:50 12,9 C 11,7 C 11,1 C 64 % 1015,3 hPa 0,0 l/m 0 min 0 min 0 W/m 0,0 km/h (0 Bft) 97,87 %
18.04.2020 00:52 12,9 C 11,7 C 11,1 C 64 % 1015,3 hPa 0,0 l/m 0 min 0 min 0 W/m 0,0 km/h (0 Bft) 97,87 %
18.04.2020 00:54 12,9 C 11,7 C 11,1 C 64 % 1015,2 hPa 0,0 l/m 0 min 0 min 0 W/m 3,2 km/h (1 Bft) 95,74 %
18.04.2020 00:56 12,8 C 11,7 C 11,1 C 65 % 1015,2 hPa 0,0 l/m 0 min 0 min 0 W/m 0,0 km/h (0 Bft) 95,65 %
18.04.2020 00:58 12,8 C 11,7 C 11,1 C 65 % 1015,2 hPa 0,0 l/m 0 min 0 min 0 W/m 6,4 km/h (2 Bft) 93,62 %
18.04.2020 01:00 12,8 C 11,7 C 10,6 C 65 % 1015,2 hPa 0,0 l/m 0 min 0 min 0 W/m 0,0 km/h (0 Bft) 95,74 %
18.04.2020 01:02 12,8 C 11,7 C 10,6 C 65 % 1015,2 hPa 0,0 l/m 0 min 0 min 0 W/m 0,0 km/h (0 Bft) 95,74 %
18.04.2020 01:04 12,8 C 11,7 C 10,6 C 65 % 1015,2 hPa 0,0 l/m 0 min 0 min 0 W/m 3,2 km/h (1 Bft) 95,74 %
18.04.2020 01:06 12,8 C 11,7 C 10,6 C 65 % 1015,2 hPa 0,0 l/m 0 min 0 min 0 W/m 0,0 km/h (0 Bft) 93,62 %
18.04.2020 01:08 12,8 C 11,7 C 10,6 C 65 % 1015,1 hPa 0,0 l/m 0 min 0 min 0 W/m 3,2 km/h (1 Bft) 95,65 %
18.04.2020 01:10 12,8 C 11,7 C 10,6 C 65 % 1015,1 hPa 0,0 l/m 0 min 0 min 0 W/m 6,4 km/h (2 Bft) 95,74 %
18.04.2020 01:12 12,8 C 11,7 C 10,6 C 65 % 1015,1 hPa 0,0 l/m 0 min 0 min 0 W/m 3,2 km/h (1 Bft) 95,74 %
18.04.2020 01:14 12,7 C 11,7 C 10,6 C 66 % 1015,1 hPa 0,0 l/m 0 min 0 min 0 W/m 0,0 km/h (0 Bft) 95,74 %
18.04.2020 01:16 12,7 C 11,7 C 10,6 C 66 % 1015,1 hPa 0,0 l/m 0 min 0 min 0 W/m 3,2 km/h (1 Bft) 93,62 %
18.04.2020 01:18 12,7 C 11,1 C 10,6 C 66 % 1015,2 hPa 0,0 l/m 0 min 0 min 0 W/m 0,0 km/h (0 Bft) 97,87 %
18.04.2020 01:20 12,7 C 11,1 C 10,6 C 66 % 1015,2 hPa 0,0 l/m 0 min 0 min 0 W/m 0,0 km/h (0 Bft) 97,83 %
18.04.2020 01:22 12,7 C 11,1 C 10,6 C 66 % 1015,2 hPa 0,0 l/m 0 min 0 min 0 W/m 0,0 km/h (0 Bft) 97,87 %
18.04.2020 01:24 12,7 C 11,1 C 10,6 C 66 % 1015,2 hPa 0,0 l/m 0 min 0 min 0 W/m 0,0 km/h (0 Bft) 97,87 %
18.04.2020 01:26 12,6 C 11,1 C 10,6 C 66 % 1015,2 hPa 0,0 l/m 0 min 0 min 0 W/m 6,4 km/h (2 Bft) 97,87 %
18.04.2020 01:28 12,6 C 11,1 C 10,6 C 66 % 1015,2 hPa 0,0 l/m 0 min 0 min 0 W/m 3,2 km/h (1 Bft) 97,87 %
18.04.2020 01:30 12,6 C 11,1 C 10,0 C 66 % 1015,1 hPa 0,0 l/m 0 min 0 min 0 W/m 3,2 km/h (1 Bft) 97,87 %
18.04.2020 01:32 12,6 C 11,1 C 10,0 C 66 % 1015,1 hPa 0,0 l/m 0 min 0 min 0 W/m 0,0 km/h (0 Bft) 95,65 %
18.04.2020 01:34 12,5 C 11,1 C 10,0 C 66 % 1015,1 hPa 0,0 l/m 0 min 0 min 0 W/m 0,0 km/h (0 Bft) 97,87 %
18.04.2020 01:36 12,5 C 11,1 C 10,0 C 67 % 1015,1 hPa 0,0 l/m 0 min 0 min 0 W/m 0,0 km/h (0 Bft) 97,87 %
18.04.2020 01:38 12,4 C 11,1 C 10,0 C 67 % 1015,1 hPa 0,0 l/m 0 min 0 min 0 W/m 3,2 km/h (1 Bft) 97,87 %
18.04.2020 01:40 12,4 C 10,6 C 10,0 C 67 % 1015,1 hPa 0,0 l/m 0 min 0 min 0 W/m 3,2 km/h (1 Bft) 97,87 %
18.04.2020 01:42 12,4 C 10,6 C 10,0 C 67 % 1015,1 hPa 0,0 l/m 0 min 0 min 0 W/m 0,0 km/h (0 Bft) 95,74 %
18.04.2020 01:44 12,4 C 10,6 C 10,0 C 67 % 1015,1 hPa 0,0 l/m 0 min 0 min 0 W/m 3,2 km/h (1 Bft) 97,83 %
18.04.2020 01:46 12,3 C 10,6 C 10,0 C 67 % 1015,1 hPa 0,0 l/m 0 min 0 min 0 W/m 3,2 km/h (1 Bft) 100,00 %
18.04.2020 01:48 12,3 C 10,6 C 10,0 C 67 % 1015,0 hPa 0,0 l/m 0 min 0 min 0 W/m 3,2 km/h (1 Bft) 100,00 %
18.04.2020 01:50 12,3 C 10,6 C 10,0 C 67 % 1015,1 hPa 0,0 l/m 0 min 0 min 0 W/m 0,0 km/h (0 Bft) 97,87 %
18.04.2020 01:52 12,2 C 10,6 C 10,0 C 67 % 1015,1 hPa 0,0 l/m 0 min 0 min 0 W/m 0,0 km/h (0 Bft) 100,00 %
18.04.2020 01:54 12,2 C 10,6 C 9,4 C 67 % 1015,1 hPa 0,0 l/m 0 min 0 min 0 W/m 3,2 km/h (1 Bft) 100,00 %
18.04.2020 01:56 12,2 C 10,6 C 9,4 C 67 % 1015,0 hPa 0,0 l/m 0 min 0 min 0 W/m 0,0 km/h (0 Bft) 100,00 %
18.04.2020 01:58 12,1 C 10,6 C 9,4 C 67 % 1015,0 hPa 0,0 l/m 0 min 0 min 0 W/m 0,0 km/h (0 Bft) 97,87 %
18.04.2020 02:00 12,1 C 10,6 C 9,4 C 67 % 1015,1 hPa 0,0 l/m 0 min 0 min 0 W/m 0,0 km/h (0 Bft) 100,00 %
18.04.2020 02:02 12,1 C 10,6 C 9,4 C 67 % 1015,1 hPa 0,0 l/m 0 min 0 min 0 W/m 3,2 km/h (1 Bft) 100,00 %
18.04.2020 02:04 12,0 C 10,6 C 9,4 C 68 % 1015,1 hPa 0,0 l/m 0 min 0 min 0 W/m 3,2 km/h (1 Bft) 97,87 %
18.04.2020 02:06 11,9 C 10,6 C 9,4 C 68 % 1015,1 hPa 0,0 l/m 0 min 0 min 0 W/m 3,2 km/h (1 Bft) 95,65 %
18.04.2020 02:08 11,9 C 10,6 C 9,4 C 68 % 1015,0 hPa 0,0 l/m 0 min 0 min 0 W/m 0,0 km/h (0 Bft) 100,00 %
18.04.2020 02:10 11,9 C 10,6 C 9,4 C 68 % 1015,0 hPa 0,0 l/m 0 min 0 min 0 W/m 3,2 km/h (1 Bft) 97,87 %
18.04.2020 02:12 11,9 C 10,6 C 9,4 C 68 % 1014,9 hPa 0,0 l/m 0 min 0 min 0 W/m 0,0 km/h (0 Bft) 82,98 %
18.04.2020 02:14 11,8 C 10,6 C 9,4 C 68 % 1014,9 hPa 0,0 l/m 0 min 0 min 0 W/m 3,2 km/h (1 Bft) 69,77 %
18.04.2020 02:16 11,8 C 10,6 C 9,4 C 68 % 1014,9 hPa 0,0 l/m 0 min 0 min 0 W/m 3,2 km/h (1 Bft) 97,87 %
18.04.2020 02:18 11,7 C 10,0 C 9,4 C 69 % 1014,9 hPa 0,0 l/m 0 min 0 min 0 W/m 3,2 km/h (1 Bft) 97,83 %
18.04.2020 02:20 11,7 C 10,0 C 9,4 C 69 % 1014,9 hPa 0,0 l/m 0 min 0 min 0 W/m 0,0 km/h (0 Bft) 97,87 %
18.04.2020 02:22 11,7 C 10,0 C 9,4 C 69 % 1015,0 hPa 0,0 l/m 0 min 0 min 0 W/m 0,0 km/h (0 Bft) 97,87 %
18.04.2020 02:24 11,7 C 10,0 C 9,4 C 69 % 1014,9 hPa 0,0 l/m 0 min 0 min 0 W/m 0,0 km/h (0 Bft) 95,74 %
18.04.2020 02:26 11,6 C 10,0 C 9,4 C 69 % 1014,9 hPa 0,0 l/m 0 min 0 min 0 W/m 9,7 km/h (2 Bft) 97,87 %
18.04.2020 02:28 11,6 C 10,0 C 9,4 C 69 % 1014,8 hPa 0,0 l/m 0 min 0 min 0 W/m 0,0 km/h (0 Bft) 97,87 %
18.04.2020 02:30 11,6 C 10,0 C 9,4 C 69 % 1014,9 hPa 0,0 l/m 0 min 0 min 0 W/m 0,0 km/h (0 Bft) 97,83 %
18.04.2020 02:32 11,5 C 10,0 C 9,4 C 69 % 1014,9 hPa 0,0 l/m 0 min 0 min 0 W/m 9,7 km/h (2 Bft) 97,87 %
18.04.2020 02:34 11,5 C 10,0 C 9,4 C 69 % 1014,9 hPa 0,0 l/m 0 min 0 min 0 W/m 0,0 km/h (0 Bft) 95,74 %
18.04.2020 02:36 11,4 C 10,0 C 9,4 C 69 % 1014,8 hPa 0,0 l/m 0 min 0 min 0 W/m 3,2 km/h (1 Bft) 97,87 %
18.04.2020 02:38 11,4 C 10,0 C 9,4 C 69 % 1014,9 hPa 0,0 l/m 0 min 0 min 0 W/m 0,0 km/h (0 Bft) 95,74 %
18.04.2020 02:40 11,4 C 10,0 C 9,4 C 69 % 1014,9 hPa 0,0 l/m 0 min 0 min 0 W/m 0,0 km/h (0 Bft) 97,87 %
18.04.2020 02:42 11,4 C 10,0 C 9,4 C 69 % 1014,8 hPa 0,0 l/m 0 min 0 min 0 W/m 3,2 km/h (1 Bft) 97,83 %
18.04.2020 02:44 11,3 C 10,0 C 9,4 C 69 % 1014,8 hPa 0,0 l/m 0 min 0 min 0 W/m 6,4 km/h (2 Bft) 97,87 %
18.04.2020 02:46 11,3 C 10,0 C 9,4 C 69 % 1014,7 hPa 0,0 l/m 0 min 0 min 0 W/m 0,0 km/h (0 Bft) 97,87 %
18.04.2020 02:48 11,3 C 10,0 C 9,4 C 69 % 1014,7 hPa 0,0 l/m 0 min 0 min 0 W/m 3,2 km/h (1 Bft) 97,87 %
18.04.2020 02:50 11,3 C 10,0 C 9,4 C 69 % 1014,7 hPa 0,0 l/m 0 min 0 min 0 W/m 3,2 km/h (1 Bft) 97,87 %
18.04.2020 02:52 11,2 C 10,0 C 9,4 C 69 % 1014,7 hPa 0,0 l/m 0 min 0 min 0 W/m 0,0 km/h (0 Bft) 97,87 %
18.04.2020 02:54 11,2 C 10,0 C 9,4 C 69 % 1014,7 hPa 0,0 l/m 0 min 0 min 0 W/m 3,2 km/h (1 Bft) 95,65 %
18.04.2020 02:56 11,2 C 10,0 C 9,4 C 70 % 1014,7 hPa 0,0 l/m 0 min 0 min 0 W/m 0,0 km/h (0 Bft) 95,74 %
18.04.2020 02:58 11,2 C 10,0 C 9,4 C 70 % 1014,7 hPa 0,0 l/m 0 min 0 min 0 W/m 0,0 km/h (0 Bft) 97,87 %
18.04.2020 03:00 11,2 C 10,0 C 9,4 C 70 % 1014,7 hPa 0,0 l/m 0 min 0 min 0 W/m 0,0 km/h (0 Bft) 97,87 %
18.04.2020 03:02 11,1 C 10,0 C 8,9 C 69 % 1014,8 hPa 0,0 l/m 0 min 0 min 0 W/m 0,0 km/h (0 Bft) 100,00 %
18.04.2020 03:04 11,1 C 9,4 C 8,9 C 69 % 1014,8 hPa 0,0 l/m 0 min 0 min 0 W/m 9,7 km/h (2 Bft) 100,00 %
18.04.2020 03:06 11,1 C 9,4 C 8,9 C 70 % 1014,8 hPa 0,0 l/m 0 min 0 min 0 W/m 6,4 km/h (2 Bft) 100,00 %
18.04.2020 03:08 11,1 C 9,4 C 8,9 C 70 % 1014,8 hPa 0,0 l/m 0 min 0 min 0 W/m 0,0 km/h (0 Bft) 100,00 %
18.04.2020 03:10 11,1 C 9,4 C 8,9 C 70 % 1014,8 hPa 0,0 l/m 0 min 0 min 0 W/m 3,2 km/h (1 Bft) 100,00 %
18.04.2020 03:12 11,0 C 9,4 C 8,9 C 70 % 1014,8 hPa 0,0 l/m 0 min 0 min 0 W/m 0,0 km/h (0 Bft) 100,00 %
18.04.2020 03:14 11,0 C 9,4 C 8,9 C 70 % 1014,8 hPa 0,0 l/m 0 min 0 min 0 W/m 0,0 km/h (0 Bft) 100,00 %
18.04.2020 03:16 10,9 C 9,4 C 8,9 C 70 % 1014,8 hPa 0,0 l/m 0 min 0 min 0 W/m 0,0 km/h (0 Bft) 100,00 %
18.04.2020 03:18 10,9 C 9,4 C 8,9 C 70 % 1014,8 hPa 0,0 l/m 0 min 0 min 0 W/m 0,0 km/h (0 Bft) 100,00 %
18.04.2020 03:20 10,9 C 9,4 C 8,9 C 70 % 1014,8 hPa 0,0 l/m 0 min 0 min 0 W/m 0,0 km/h (0 Bft) 100,00 %
18.04.2020 03:22 10,9 C 9,4 C 8,9 C 70 % 1014,8 hPa 0,0 l/m 0 min 0 min 0 W/m 3,2 km/h (1 Bft) 100,00 %
18.04.2020 03:24 10,8 C 9,4 C 8,9 C 70 % 1014,8 hPa 0,0 l/m 0 min 0 min 0 W/m 6,4 km/h (2 Bft) 100,00 %
18.04.2020 03:26 10,8 C 9,4 C 8,9 C 70 % 1014,8 hPa 0,0 l/m 0 min 0 min 0 W/m 0,0 km/h (0 Bft) 100,00 %
18.04.2020 03:28 10,8 C 9,4 C 8,9 C 70 % 1014,8 hPa 0,0 l/m 0 min 0 min 0 W/m 3,2 km/h (1 Bft) 100,00 %
18.04.2020 03:30 10,7 C 9,4 C 8,9 C 70 % 1014,8 hPa 0,0 l/m 0 min 0 min 0 W/m 0,0 km/h (0 Bft) 97,87 %
18.04.2020 03:32 10,7 C 9,4 C 8,9 C 71 % 1014,7 hPa 0,0 l/m 0 min 0 min 0 W/m 3,2 km/h (1 Bft) 100,00 %
18.04.2020 03:34 10,7 C 9,4 C 8,3 C 70 % 1014,6 hPa 0,0 l/m 0 min 0 min 0 W/m 0,0 km/h (0 Bft) 100,00 %
18.04.2020 03:36 10,7 C 9,4 C 8,9 C 71 % 1014,7 hPa 0,0 l/m 0 min 0 min 0 W/m 0,0 km/h (0 Bft) 100,00 %
18.04.2020 03:38 10,7 C 9,4 C 8,9 C 70 % 1014,7 hPa 0,0 l/m 0 min 0 min 0 W/m 3,2 km/h (1 Bft) 97,87 %
18.04.2020 03:40 10,6 C 9,4 C 8,3 C 70 % 1014,6 hPa 0,0 l/m 0 min 0 min 0 W/m 0,0 km/h (0 Bft) 100,00 %
18.04.2020 03:42 10,6 C 9,4 C 8,3 C 70 % 1014,6 hPa 0,0 l/m 0 min 0 min 0 W/m 0,0 km/h (0 Bft) 100,00 %
18.04.2020 03:44 10,6 C 9,4 C 8,3 C 71 % 1014,7 hPa 0,0 l/m 0 min 0 min 0 W/m 0,0 km/h (0 Bft) 100,00 %
18.04.2020 03:46 10,6 C 8,9 C 8,3 C 71 % 1014,7 hPa 0,0 l/m 0 min 0 min 0 W/m 0,0 km/h (0 Bft) 100,00 %
18.04.2020 03:48 10,5 C 9,4 C 8,3 C 71 % 1014,7 hPa 0,0 l/m 0 min 0 min 0 W/m 0,0 km/h (0 Bft) 100,00 %
18.04.2020 03:50 10,5 C 8,9 C 8,3 C 71 % 1014,7 hPa 0,0 l/m 0 min 0 min 0 W/m 0,0 km/h (0 Bft) 97,87 %
18.04.2020 03:52 10,5 C 8,9 C 8,3 C 71 % 1014,8 hPa 0,0 l/m 0 min 0 min 0 W/m 0,0 km/h (0 Bft) 95,65 %
18.04.2020 03:54 10,4 C 8,9 C 8,3 C 71 % 1014,7 hPa 0,0 l/m 0 min 0 min 0 W/m 0,0 km/h (0 Bft) 97,87 %
18.04.2020 03:56 10,4 C 8,9 C 8,3 C 71 % 1014,7 hPa 0,0 l/m 0 min 0 min 0 W/m 0,0 km/h (0 Bft) 97,87 %
18.04.2020 03:58 10,4 C 8,9 C 8,3 C 71 % 1014,7 hPa 0,0 l/m 0 min 0 min 0 W/m 0,0 km/h (0 Bft) 95,74 %
18.04.2020 04:00 10,3 C 8,9 C 8,3 C 71 % 1014,6 hPa 0,0 l/m 0 min 0 min 0 W/m 0,0 km/h (0 Bft) 97,87 %
18.04.2020 04:02 10,3 C 8,9 C 8,3 C 71 % 1014,6 hPa 0,0 l/m 0 min 0 min 0 W/m 0,0 km/h (0 Bft) 100,00 %
18.04.2020 04:04 10,3 C 8,9 C 8,3 C 71 % 1014,5 hPa 0,0 l/m 0 min 0 min 0 W/m 3,2 km/h (1 Bft) 95,65 %
18.04.2020 04:06 10,3 C 8,9 C 8,3 C 71 % 1014,5 hPa 0,0 l/m 0 min 0 min 0 W/m 3,2 km/h (1 Bft) 95,74 %
18.04.2020 04:08 10,2 C 8,9 C 8,3 C 71 % 1014,5 hPa 0,0 l/m 0 min 0 min 0 W/m 0,0 km/h (0 Bft) 93,62 %
18.04.2020 04:10 10,2 C 8,9 C 8,3 C 71 % 1014,5 hPa 0,0 l/m 0 min 0 min 0 W/m 0,0 km/h (0 Bft) 95,74 %
18.04.2020 04:12 10,2 C 8,9 C 8,3 C 72 % 1014,5 hPa 0,0 l/m 0 min 0 min 0 W/m 0,0 km/h (0 Bft) 95,74 %
18.04.2020 04:14 10,2 C 8,9 C 8,3 C 72 % 1014,5 hPa 0,0 l/m 0 min 0 min 0 W/m 3,2 km/h (1 Bft) 95,65 %
18.04.2020 04:16 10,1 C 8,9 C 8,3 C 72 % 1014,5 hPa 0,0 l/m 0 min 0 min 0 W/m 0,0 km/h (0 Bft) 95,74 %
18.04.2020 04:18 10,1 C 8,9 C 8,3 C 72 % 1014,6 hPa 0,0 l/m 0 min 0 min 0 W/m 0,0 km/h (0 Bft) 93,62 %
18.04.2020 04:20 10,1 C 8,9 C 8,3 C 72 % 1014,6 hPa 0,0 l/m 0 min 0 min 0 W/m 0,0 km/h (0 Bft) 95,74 %
18.04.2020 04:22 10,1 C 8,9 C 8,3 C 72 % 1014,6 hPa 0,0 l/m 0 min 0 min 0 W/m 0,0 km/h (0 Bft) 95,74 %
18.04.2020 04:24 10,1 C 8,9 C 8,3 C 72 % 1014,6 hPa 0,0 l/m 0 min 0 min 0 W/m 0,0 km/h (0 Bft) 95,74 %
18.04.2020 04:26 10,1 C 8,9 C 8,3 C 72 % 1014,6 hPa 0,0 l/m 0 min 0 min 0 W/m 0,0 km/h (0 Bft) 93,48 %
18.04.2020 04:28 10,1 C 8,9 C 8,3 C 72 % 1014,6 hPa 0,0 l/m 0 min 0 min 0 W/m 0,0 km/h (0 Bft) 93,62 %
18.04.2020 04:30 10,1 C 8,9 C 8,3 C 72 % 1014,5 hPa 0,0 l/m 0 min 0 min 0 W/m 0,0 km/h (0 Bft) 93,62 %
18.04.2020 04:32 10,1 C 8,9 C 8,3 C 72 % 1014,5 hPa 0,0 l/m 0 min 0 min 0 W/m 0,0 km/h (0 Bft) 93,62 %
18.04.2020 04:34 10,0 C 8,9 C 8,3 C 72 % 1014,5 hPa 0,0 l/m 0 min 0 min 0 W/m 0,0 km/h (0 Bft) 91,49 %
18.04.2020 04:36 10,0 C 8,9 C 8,3 C 72 % 1014,5 hPa 0,0 l/m 0 min 0 min 0 W/m 0,0 km/h (0 Bft) 91,49 %
18.04.2020 04:38 10,0 C 8,9 C 8,3 C 72 % 1014,5 hPa 0,0 l/m 0 min 0 min 0 W/m 3,2 km/h (1 Bft) 93,48 %
18.04.2020 04:40 9,9 C 8,9 C 8,3 C 72 % 1014,4 hPa 0,0 l/m 0 min 0 min 0 W/m 0,0 km/h (0 Bft) 91,49 %
18.04.2020 04:42 9,9 C 8,9 C 8,3 C 72 % 1014,5 hPa 0,0 l/m 0 min 0 min 0 W/m 6,4 km/h (2 Bft) 95,74 %
18.04.2020 04:44 9,9 C 8,9 C 8,3 C 72 % 1014,5 hPa 0,0 l/m 0 min 0 min 0 W/m 6,4 km/h (2 Bft) 95,74 %
18.04.2020 04:46 9,9 C 8,9 C 8,3 C 72 % 1014,5 hPa 0,0 l/m 0 min 0 min 0 W/m 0,0 km/h (0 Bft) 93,62 %
18.04.2020 04:48 9,9 C 8,9 C 8,3 C 72 % 1014,6 hPa 0,0 l/m 0 min 0 min 0 W/m 3,2 km/h (1 Bft) 89,36 %
18.04.2020 04:50 9,9 C 8,9 C 8,3 C 72 % 1014,6 hPa 0,0 l/m 0 min 0 min 0 W/m 0,0 km/h (0 Bft) 95,65 %
18.04.2020 04:52 9,9 C 8,9 C 8,3 C 72 % 1014,5 hPa 0,0 l/m 0 min 0 min 0 W/m 0,0 km/h (0 Bft) 95,74 %
18.04.2020 04:54 9,9 C 8,3 C 7,8 C 72 % 1014,5 hPa 0,0 l/m 0 min 0 min 0 W/m 0,0 km/h (0 Bft) 95,74 %
18.04.2020 04:56 9,9 C 8,3 C 7,8 C 72 % 1014,6 hPa 0,0 l/m 0 min 0 min 0 W/m 3,2 km/h (1 Bft) 95,74 %
18.04.2020 04:58 9,8 C 8,3 C 7,8 C 72 % 1014,6 hPa 0,0 l/m 0 min 0 min 0 W/m 3,2 km/h (1 Bft) 93,62 %
18.04.2020 05:00 9,8 C 8,3 C 7,8 C 72 % 1014,5 hPa 0,0 l/m 0 min 0 min 0 W/m 0,0 km/h (0 Bft) 95,74 %
18.04.2020 05:02 9,8 C 8,3 C 7,8 C 72 % 1014,5 hPa 0,0 l/m 0 min 0 min 0 W/m 0,0 km/h (0 Bft) 95,65 %
18.04.2020 05:04 9,8 C 8,3 C 7,8 C 72 % 1014,5 hPa 0,0 l/m 0 min 0 min 0 W/m 0,0 km/h (0 Bft) 95,74 %
18.04.2020 05:06 9,8 C 8,3 C 7,8 C 72 % 1014,5 hPa 0,0 l/m 0 min 0 min 0 W/m 0,0 km/h (0 Bft) 95,74 %
18.04.2020 05:08 9,8 C 8,3 C 7,8 C 72 % 1014,5 hPa 0,0 l/m 0 min 0 min 0 W/m 0,0 km/h (0 Bft) 97,87 %
18.04.2020 05:10 9,7 C 8,3 C 7,8 C 72 % 1014,5 hPa 0,0 l/m 0 min 0 min 0 W/m 0,0 km/h (0 Bft) 97,87 %
18.04.2020 05:12 9,7 C 8,3 C 7,8 C 72 % 1014,4 hPa 0,0 l/m 0 min 0 min 0 W/m 0,0 km/h (0 Bft) 97,87 %
18.04.2020 05:14 9,7 C 8,3 C 7,8 C 73 % 1014,4 hPa 0,0 l/m 0 min 0 min 0 W/m 0,0 km/h (0 Bft) 100,00 %
18.04.2020 05:16 9,7 C 8,3 C 7,8 C 73 % 1014,4 hPa 0,0 l/m 0 min 0 min 0 W/m 3,2 km/h (1 Bft) 100,00 %
18.04.2020 05:18 9,6 C 8,3 C 7,8 C 72 % 1014,5 hPa 0,0 l/m 0 min 0 min 0 W/m 3,2 km/h (1 Bft) 100,00 %
18.04.2020 05:20 9,6 C 8,3 C 7,8 C 72 % 1014,4 hPa 0,0 l/m 0 min 0 min 0 W/m 0,0 km/h (0 Bft) 100,00 %
18.04.2020 05:22 9,6 C 8,3 C 7,8 C 73 % 1014,4 hPa 0,0 l/m 0 min 0 min 0 W/m 0,0 km/h (0 Bft) 97,87 %
18.04.2020 05:24 9,6 C 8,3 C 7,8 C 73 % 1014,4 hPa 0,0 l/m 0 min 0 min 0 W/m 0,0 km/h (0 Bft) 100,00 %
18.04.2020 05:26 9,6 C 8,3 C 7,8 C 73 % 1014,4 hPa 0,0 l/m 0 min 0 min 0 W/m 3,2 km/h (1 Bft) 100,00 %
18.04.2020 05:28 9,6 C 7,8 C 7,8 C 73 % 1014,4 hPa 0,0 l/m 0 min 0 min 0 W/m 0,0 km/h (0 Bft) 100,00 %
18.04.2020 05:30 9,5 C 7,8 C 7,2 C 73 % 1014,4 hPa 0,0 l/m 0 min 0 min 0 W/m 0,0 km/h (0 Bft) 100,00 %
18.04.2020 05:32 9,4 C 7,8 C 7,8 C 73 % 1014,4 hPa 0,0 l/m 0 min 0 min 0 W/m 0,0 km/h (0 Bft) 100,00 %
18.04.2020 05:34 9,4 C 7,8 C 7,8 C 73 % 1014,4 hPa 0,0 l/m 0 min 0 min 0 W/m 3,2 km/h (1 Bft) 100,00 %
18.04.2020 05:36 9,4 C 7,8 C 7,2 C 73 % 1014,4 hPa 0,0 l/m 0 min 0 min 0 W/m 0,0 km/h (0 Bft) 100,00 %
18.04.2020 05:38 9,4 C 7,8 C 7,2 C 73 % 1014,4 hPa 0,0 l/m 0 min 0 min 0 W/m 0,0 km/h (0 Bft) 97,87 %
18.04.2020 05:40 9,3 C 7,8 C 7,2 C 74 % 1014,3 hPa 0,0 l/m 0 min 0 min 0 W/m 6,4 km/h (2 Bft) 100,00 %
18.04.2020 05:42 9,3 C 7,8 C 7,2 C 74 % 1014,3 hPa 0,0 l/m 0 min 0 min 0 W/m 3,2 km/h (1 Bft) 100,00 %
18.04.2020 05:44 9,3 C 7,8 C 7,2 C 74 % 1014,3 hPa 0,0 l/m 0 min 0 min 0 W/m 3,2 km/h (1 Bft) 100,00 %
18.04.2020 05:46 9,3 C 8,3 C 7,2 C 74 % 1014,3 hPa 0,0 l/m 0 min 0 min 0 W/m 0,0 km/h (0 Bft) 100,00 %
18.04.2020 05:48 9,3 C 8,3 C 7,2 C 74 % 1014,3 hPa 0,0 l/m 0 min 0 min 0 W/m 3,2 km/h (1 Bft) 100,00 %
18.04.2020 05:50 9,2 C 8,3 C 7,8 C 74 % 1014,2 hPa 0,0 l/m 0 min 0 min 0 W/m 3,2 km/h (1 Bft) 100,00 %
18.04.2020 05:52 9,2 C 8,3 C 7,8 C 74 % 1014,2 hPa 0,0 l/m 0 min 0 min 0 W/m 0,0 km/h (0 Bft) 100,00 %
18.04.2020 05:54 9,2 C 8,3 C 7,8 C 74 % 1014,2 hPa 0,0 l/m 0 min 0 min 0 W/m 0,0 km/h (0 Bft) 100,00 %
18.04.2020 05:56 9,2 C 8,3 C 7,2 C 74 % 1014,2 hPa 0,0 l/m 0 min 0 min 0 W/m 0,0 km/h (0 Bft) 100,00 %
18.04.2020 05:58 9,2 C 8,3 C 7,2 C 74 % 1014,3 hPa 0,0 l/m 0 min 0 min 0 W/m 0,0 km/h (0 Bft) 100,00 %
18.04.2020 06:00 9,2 C 7,8 C 7,2 C 75 % 1014,3 hPa 0,0 l/m 0 min 0 min 0 W/m 0,0 km/h (0 Bft) 100,00 %
18.04.2020 06:02 9,2 C 7,8 C 7,2 C 75 % 1014,4 hPa 0,0 l/m 0 min 0 min 0 W/m 0,0 km/h (0 Bft) 100,00 %
18.04.2020 06:04 9,1 C 7,8 C 7,2 C 75 % 1014,4 hPa 0,0 l/m 0 min 0 min 0 W/m 0,0 km/h (0 Bft) 95,74 %
18.04.2020 06:06 9,1 C 7,8 C 7,2 C 75 % 1014,5 hPa 0,0 l/m 0 min 0 min 0 W/m 0,0 km/h (0 Bft) 97,87 %
18.04.2020 06:08 9,1 C 7,8 C 7,2 C 75 % 1014,5 hPa 0,0 l/m 0 min 0 min 0 W/m 0,0 km/h (0 Bft) 100,00 %
18.04.2020 06:10 9,1 C 7,8 C 7,2 C 74 % 1014,6 hPa 0,0 l/m 0 min 0 min 0 W/m 0,0 km/h (0 Bft) 97,83 %
18.04.2020 06:12 9,1 C 7,8 C 6,7 C 74 % 1014,5 hPa 0,0 l/m 0 min 0 min 0 W/m 0,0 km/h (0 Bft) 100,00 %
18.04.2020 06:14 9,1 C 7,8 C 6,7 C 74 % 1014,4 hPa 0,0 l/m 0 min 0 min 0 W/m 0,0 km/h (0 Bft) 100,00 %
18.04.2020 06:16 9,1 C 7,2 C 6,7 C 74 % 1014,4 hPa 0,0 l/m 0 min 0 min 0 W/m 0,0 km/h (0 Bft) 100,00 %
18.04.2020 06:18 9,1 C 7,2 C 6,7 C 74 % 1014,4 hPa 0,0 l/m 0 min 0 min 0 W/m 0,0 km/h (0 Bft) 100,00 %
18.04.2020 06:20 9,1 C 7,2 C 6,7 C 74 % 1014,4 hPa 0,0 l/m 0 min 0 min 0 W/m 0,0 km/h (0 Bft) 100,00 %
18.04.2020 06:22 9,0 C 7,2 C 6,7 C 74 % 1014,5 hPa 0,0 l/m 0 min 0 min 0 W/m 0,0 km/h (0 Bft) 95,65 %
18.04.2020 06:24 9,0 C 7,2 C 6,7 C 74 % 1014,5 hPa 0,0 l/m 0 min 0 min 0 W/m 0,0 km/h (0 Bft) 100,00 %
18.04.2020 06:26 9,0 C 7,2 C 6,7 C 74 % 1014,5 hPa 0,0 l/m 0 min 0 min 0 W/m 0,0 km/h (0 Bft) 100,00 %
18.04.2020 06:28 8,9 C 7,2 C 6,7 C 74 % 1014,5 hPa 0,0 l/m 0 min 0 min 0 W/m 0,0 km/h (0 Bft) 97,87 %
18.04.2020 06:30 8,9 C 7,2 C 6,7 C 74 % 1014,4 hPa 0,0 l/m 0 min 0 min 2 W/m 0,0 km/h (0 Bft) 97,87 %
18.04.2020 06:32 8,9 C 7,2 C 6,7 C 74 % 1014,4 hPa 0,0 l/m 0 min 0 min 5 W/m 0,0 km/h (0 Bft) 100,00 %
18.04.2020 06:34 8,9 C 7,2 C 6,7 C 74 % 1014,4 hPa 0,0 l/m 0 min 0 min 6 W/m 0,0 km/h (0 Bft) 97,83 %
18.04.2020 06:36 8,8 C 7,2 C 6,7 C 74 % 1014,4 hPa 0,0 l/m 0 min 0 min 7 W/m 0,0 km/h (0 Bft) 97,87 %
18.04.2020 06:38 8,8 C 7,2 C 6,7 C 74 % 1014,5 hPa 0,0 l/m 0 min 0 min 9 W/m 0,0 km/h (0 Bft) 97,87 %
18.04.2020 06:40 8,8 C 7,2 C 6,7 C 74 % 1014,5 hPa 0,0 l/m 0 min 0 min 10 W/m 0,0 km/h (0 Bft) 97,87 %
18.04.2020 06:42 8,8 C 7,2 C 6,7 C 75 % 1014,5 hPa 0,0 l/m 0 min 0 min 11 W/m 0,0 km/h (0 Bft) 97,87 %
18.04.2020 06:44 8,8 C 7,2 C 6,7 C 75 % 1014,5 hPa 0,0 l/m 0 min 0 min 12 W/m 0,0 km/h (0 Bft) 95,74 %
18.04.2020 06:46 8,8 C 7,8 C 6,7 C 75 % 1014,5 hPa 0,0 l/m 0 min 0 min 15 W/m 0,0 km/h (0 Bft) 95,65 %
18.04.2020 06:48 8,7 C 7,8 C 6,7 C 75 % 1014,5 hPa 0,0 l/m 0 min 0 min 17 W/m 0,0 km/h (0 Bft) 95,74 %
18.04.2020 06:50 8,7 C 7,8 C 6,7 C 75 % 1014,6 hPa 0,0 l/m 0 min 0 min 19 W/m 0,0 km/h (0 Bft) 95,74 %
18.04.2020 06:52 8,7 C 7,8 C 6,7 C 75 % 1014,5 hPa 0,0 l/m 2 min 0 min 20 W/m 0,0 km/h (0 Bft) 95,74 %
18.04.2020 06:54 8,7 C 7,8 C 6,7 C 75 % 1014,5 hPa 0,0 l/m 0 min 0 min 21 W/m 0,0 km/h (0 Bft) 93,62 %
18.04.2020 06:56 8,7 C 7,8 C 6,7 C 75 % 1014,5 hPa 0,0 l/m 0 min 0 min 23 W/m 0,0 km/h (0 Bft) 95,65 %
18.04.2020 06:58 8,6 C 7,8 C 6,7 C 75 % 1014,5 hPa 0,0 l/m 0 min 0 min 25 W/m 0,0 km/h (0 Bft) 95,74 %
18.04.2020 07:00 8,6 C 7,8 C 7,2 C 76 % 1014,5 hPa 0,0 l/m 0 min 0 min 27 W/m 0,0 km/h (0 Bft) 93,62 %
18.04.2020 07:02 8,6 C 8,3 C 7,2 C 76 % 1014,6 hPa 0,0 l/m 0 min 0 min 29 W/m 0,0 km/h (0 Bft) 93,62 %
18.04.2020 07:04 8,6 C 8,3 C 7,2 C 76 % 1014,6 hPa 0,0 l/m 0 min 0 min 30 W/m 0,0 km/h (0 Bft) 91,49 %
18.04.2020 07:06 8,6 C 8,3 C 7,2 C 76 % 1014,6 hPa 0,0 l/m 0 min 0 min 32 W/m 3,2 km/h (1 Bft) 95,74 %
18.04.2020 07:08 8,6 C 8,3 C 7,2 C 76 % 1014,6 hPa 0,0 l/m 0 min 0 min 33 W/m 0,0 km/h (0 Bft) 95,65 %
18.04.2020 07:10 8,6 C 8,3 C 7,2 C 76 % 1014,6 hPa 0,0 l/m 0 min 0 min 35 W/m 0,0 km/h (0 Bft) 93,62 %
18.04.2020 07:12 8,6 C 8,3 C 7,8 C 77 % 1014,7 hPa 0,0 l/m 0 min 0 min 37 W/m 0,0 km/h (0 Bft) 95,74 %
18.04.2020 07:14 8,6 C 8,3 C 7,8 C 77 % 1014,7 hPa 0,0 l/m 0 min 0 min 40 W/m 0,0 km/h (0 Bft) 97,87 %
18.04.2020 07:16 8,6 C 8,3 C 7,8 C 77 % 1014,6 hPa 0,0 l/m 0 min 0 min 42 W/m 0,0 km/h (0 Bft) 97,87 %
18.04.2020 07:18 8,6 C 8,3 C 7,8 C 77 % 1014,7 hPa 0,0 l/m 0 min 0 min 46 W/m 0,0 km/h (0 Bft) 97,87 %
18.04.2020 07:20 8,6 C 8,9 C 7,8 C 77 % 1014,7 hPa 0,0 l/m 0 min 0 min 49 W/m 0,0 km/h (0 Bft) 93,48 %
18.04.2020 07:22 8,6 C 8,9 C 7,8 C 77 % 1014,7 hPa 0,0 l/m 0 min 0 min 50 W/m 0,0 km/h (0 Bft) 97,87 %
18.04.2020 07:24 8,6 C 8,9 C 7,8 C 77 % 1014,8 hPa 0,0 l/m 0 min 0 min 49 W/m 0,0 km/h (0 Bft) 97,87 %
18.04.2020 07:26 8,6 C 8,9 C 8,3 C 77 % 1014,8 hPa 0,0 l/m 0 min 0 min 48 W/m 0,0 km/h (0 Bft) 97,87 %
18.04.2020 07:28 8,7 C 8,9 C 8,3 C 77 % 1014,8 hPa 0,0 l/m 0 min 0 min 47 W/m 0,0 km/h (0 Bft) 97,87 %
18.04.2020 07:30 8,7 C 8,9 C 8,3 C 77 % 1014,8 hPa 0,0 l/m 0 min 0 min 46 W/m 0,0 km/h (0 Bft) 97,87 %
18.04.2020 07:32 8,7 C 8,9 C 8,3 C 77 % 1014,8 hPa 0,0 l/m 0 min 0 min 47 W/m 3,2 km/h (1 Bft) 95,65 %
18.04.2020 07:34 8,7 C 8,9 C 8,3 C 77 % 1014,8 hPa 0,0 l/m 0 min 0 min 47 W/m 0,0 km/h (0 Bft) 100,00 %
18.04.2020 07:36 8,7 C 8,9 C 8,3 C 77 % 1014,8 hPa 0,0 l/m 0 min 0 min 46 W/m 0,0 km/h (0 Bft) 100,00 %
18.04.2020 07:38 8,7 C 8,9 C 8,3 C 77 % 1014,8 hPa 0,0 l/m 0 min 0 min 46 W/m 3,2 km/h (1 Bft) 97,87 %
18.04.2020 07:40 8,8 C 8,9 C 8,3 C 77 % 1014,8 hPa 0,0 l/m 0 min 0 min 48 W/m 0,0 km/h (0 Bft) 100,00 %
18.04.2020 07:42 8,8 C 8,9 C 8,3 C 77 % 1014,9 hPa 0,0 l/m 0 min 0 min 52 W/m 0,0 km/h (0 Bft) 100,00 %
18.04.2020 07:44 8,8 C 9,4 C 8,3 C 77 % 1014,9 hPa 0,0 l/m 0 min 0 min 53 W/m 0,0 km/h (0 Bft) 100,00 %
18.04.2020 07:46 8,8 C 9,4 C 8,3 C 77 % 1014,9 hPa 0,0 l/m 0 min 0 min 56 W/m 0,0 km/h (0 Bft) 100,00 %
18.04.2020 07:48 8,9 C 9,4 C 8,3 C 78 % 1015,0 hPa 0,0 l/m 0 min 0 min 56 W/m 3,2 km/h (1 Bft) 97,87 %
18.04.2020 07:50 8,9 C 9,4 C 8,9 C 78 % 1014,9 hPa 0,0 l/m 0 min 0 min 55 W/m 3,2 km/h (1 Bft) 97,87 %
18.04.2020 07:52 8,9 C 9,4 C 8,9 C 78 % 1015,0 hPa 0,0 l/m 0 min 0 min 54 W/m 0,0 km/h (0 Bft) 100,00 %
18.04.2020 07:54 9,0 C 9,4 C 8,9 C 78 % 1014,9 hPa 0,0 l/m 0 min 0 min 53 W/m 0,0 km/h (0 Bft) 100,00 %
18.04.2020 07:56 9,0 C 9,4 C 8,9 C 78 % 1014,9 hPa 0,0 l/m 0 min 0 min 54 W/m 3,2 km/h (1 Bft) 100,00 %
18.04.2020 07:58 9,1 C 9,4 C 8,9 C 78 % 1015,0 hPa 0,0 l/m 0 min 0 min 59 W/m 3,2 km/h (1 Bft) 97,87 %
18.04.2020 08:00 9,1 C 10,0 C 8,9 C 78 % 1014,9 hPa 0,0 l/m 0 min 0 min 63 W/m 0,0 km/h (0 Bft) 97,87 %
18.04.2020 08:02 9,2 C 10,0 C 8,9 C 78 % 1014,9 hPa 0,0 l/m 0 min 0 min 67 W/m 3,2 km/h (1 Bft) 97,87 %
18.04.2020 08:04 9,2 C 10,0 C 9,4 C 78 % 1015,0 hPa 0,0 l/m 0 min 0 min 75 W/m 0,0 km/h (0 Bft) 97,87 %
18.04.2020 08:06 9,2 C 10,0 C 9,4 C 78 % 1015,0 hPa 0,0 l/m 0 min 0 min 82 W/m 0,0 km/h (0 Bft) 95,74 %
18.04.2020 08:08 9,3 C 10,6 C 9,4 C 78 % 1015,0 hPa 0,0 l/m 0 min 0 min 87 W/m 6,4 km/h (2 Bft) 97,83 %
18.04.2020 08:10 9,3 C 10,6 C 9,4 C 78 % 1015,1 hPa 0,0 l/m 0 min 0 min 92 W/m 0,0 km/h (0 Bft) 97,87 %
18.04.2020 08:12 9,4 C 10,6 C 10,0 C 78 % 1015,0 hPa 0,0 l/m 0 min 0 min 96 W/m 6,4 km/h (2 Bft) 97,87 %
18.04.2020 08:14 9,5 C 10,6 C 10,0 C 78 % 1015,0 hPa 0,0 l/m 0 min 0 min 98 W/m 3,2 km/h (1 Bft) 97,87 %
18.04.2020 08:16 9,6 C 10,6 C 10,0 C 77 % 1015,0 hPa 0,0 l/m 0 min 0 min 100 W/m 0,0 km/h (0 Bft) 95,74 %
18.04.2020 08:18 9,6 C 11,1 C 10,0 C 77 % 1015,1 hPa 0,0 l/m 0 min 0 min 103 W/m 0,0 km/h (0 Bft) 97,83 %
18.04.2020 08:20 9,7 C 11,1 C 10,0 C 77 % 1015,1 hPa 0,0 l/m 0 min 0 min 107 W/m 0,0 km/h (0 Bft) 97,87 %
18.04.2020 08:22 9,7 C 11,1 C 10,6 C 77 % 1015,1 hPa 0,0 l/m 0 min 0 min 112 W/m 3,2 km/h (1 Bft) 95,74 %
18.04.2020 08:24 9,8 C 11,1 C 10,6 C 77 % 1015,0 hPa 0,0 l/m 0 min 0 min 113 W/m 3,2 km/h (1 Bft) 97,87 %
18.04.2020 08:26 9,8 C 11,7 C 10,6 C 77 % 1015,0 hPa 0,0 l/m 0 min 0 min 113 W/m 3,2 km/h (1 Bft) 95,74 %
18.04.2020 08:28 9,9 C 11,7 C 10,6 C 77 % 1015,0 hPa 0,0 l/m 0 min 0 min 114 W/m 3,2 km/h (1 Bft) 97,87 %
18.04.2020 08:30 10,0 C 11,7 C 10,6 C 77 % 1015,0 hPa 0,0 l/m 0 min 0 min 116 W/m 3,2 km/h (1 Bft) 97,83 %
18.04.2020 08:32 10,1 C 11,7 C 10,6 C 77 % 1015,0 hPa 0,0 l/m 0 min 0 min 121 W/m 3,2 km/h (1 Bft) 97,87 %
18.04.2020 08:34 10,1 C 11,7 C 11,1 C 77 % 1015,0 hPa 0,0 l/m 0 min 0 min 128 W/m 6,4 km/h (2 Bft) 97,87 %
18.04.2020 08:36 10,2 C 11,7 C 11,1 C 77 % 1015,0 hPa 0,0 l/m 0 min 0 min 136 W/m 6,4 km/h (2 Bft) 95,74 %
18.04.2020 08:38 10,3 C 12,2 C 11,1 C 77 % 1014,9 hPa 0,0 l/m 0 min 0 min 141 W/m 6,4 km/h (2 Bft) 97,87 %
18.04.2020 08:40 10,3 C 12,2 C 11,1 C 77 % 1014,9 hPa 0,0 l/m 0 min 0 min 142 W/m 6,4 km/h (2 Bft) 97,87 %
18.04.2020 08:42 10,4 C 12,2 C 11,1 C 77 % 1014,9 hPa 0,0 l/m 0 min 0 min 146 W/m 0,0 km/h (0 Bft) 97,83 %
18.04.2020 08:44 10,6 C 12,8 C 11,7 C 77 % 1014,9 hPa 0,0 l/m 0 min 0 min 158 W/m 6,4 km/h (2 Bft) 97,87 %
18.04.2020 08:46 10,6 C 12,8 C 11,7 C 77 % 1014,9 hPa 0,0 l/m 2 min 0 min 174 W/m 3,2 km/h (1 Bft) 95,74 %
18.04.2020 08:48 10,7 C 13,3 C 12,2 C 77 % 1014,9 hPa 0,0 l/m 2 min 0 min 194 W/m 3,2 km/h (1 Bft) 95,74 %
18.04.2020 08:50 10,8 C 13,3 C 12,2 C 77 % 1014,9 hPa 0,0 l/m 2 min 0 min 235 W/m 0,0 km/h (0 Bft) 97,87 %
18.04.2020 08:52 10,9 C 13,3 C 12,2 C 77 % 1014,9 hPa 0,0 l/m 2 min 0 min 196 W/m 3,2 km/h (1 Bft) 97,87 %
18.04.2020 08:54 11,0 C 13,3 C 12,2 C 77 % 1014,9 hPa 0,0 l/m 2 min 0 min 181 W/m 0,0 km/h (0 Bft) 97,83 %
18.04.2020 08:56 11,1 C 13,3 C 12,2 C 77 % 1014,9 hPa 0,0 l/m 0 min 0 min 169 W/m 6,4 km/h (2 Bft) 95,74 %
18.04.2020 08:58 11,2 C 13,3 C 12,2 C 76 % 1014,8 hPa 0,0 l/m 0 min 0 min 169 W/m 6,4 km/h (2 Bft) 100,00 %
18.04.2020 09:00 11,3 C 13,3 C 12,2 C 76 % 1014,8 hPa 0,0 l/m 0 min 0 min 165 W/m 0,0 km/h (0 Bft) 97,87 %
18.04.2020 09:02 11,4 C 13,9 C 12,2 C 76 % 1014,8 hPa 0,0 l/m 2 min 0 min 207 W/m 3,2 km/h (1 Bft) 97,87 %
18.04.2020 09:04 11,6 C 13,3 C 12,2 C 76 % 1014,8 hPa 0,0 l/m 0 min 0 min 183 W/m 6,4 km/h (2 Bft) 97,92 %
18.04.2020 09:06 11,6 C 13,9 C 12,2 C 75 % 1014,8 hPa 0,0 l/m 0 min 0 min 177 W/m 3,2 km/h (1 Bft) 97,87 %
18.04.2020 09:08 11,7 C 13,9 C 12,8 C 75 % 1014,8 hPa 0,0 l/m 2 min 0 min 202 W/m 3,2 km/h (1 Bft) 97,87 %
18.04.2020 09:10 11,8 C 13,9 C 12,8 C 75 % 1014,9 hPa 0,0 l/m 0 min 0 min 185 W/m 6,4 km/h (2 Bft) 97,87 %
18.04.2020 09:12 11,8 C 13,9 C 12,8 C 75 % 1014,9 hPa 0,0 l/m 0 min 0 min 169 W/m 3,2 km/h (1 Bft) 97,83 %
18.04.2020 09:14 11,9 C 13,3 C 12,2 C 74 % 1014,9 hPa 0,0 l/m 0 min 0 min 157 W/m 3,2 km/h (1 Bft) 95,74 %
18.04.2020 09:16 12,0 C 13,3 C 12,2 C 74 % 1015,0 hPa 0,0 l/m 0 min 0 min 158 W/m 0,0 km/h (0 Bft) 95,74 %
18.04.2020 09:18 12,1 C 13,3 C 12,8 C 74 % 1014,9 hPa 0,0 l/m 0 min 0 min 167 W/m 0,0 km/h (0 Bft) 93,62 %
18.04.2020 09:20 12,1 C 13,3 C 12,8 C 74 % 1014,9 hPa 0,0 l/m 0 min 0 min 180 W/m 0,0 km/h (0 Bft) 93,62 %
18.04.2020 09:22 12,2 C 13,9 C 12,8 C 74 % 1014,9 hPa 0,0 l/m 0 min 0 min 196 W/m 6,4 km/h (2 Bft) 95,74 %
18.04.2020 09:24 12,3 C 13,9 C 12,8 C 74 % 1014,8 hPa 0,0 l/m 0 min 0 min 205 W/m 6,4 km/h (2 Bft) 95,65 %
18.04.2020 09:26 12,3 C 14,4 C 13,3 C 74 % 1014,8 hPa 0,0 l/m 2 min 0 min 279 W/m 3,2 km/h (1 Bft) 93,62 %
18.04.2020 09:28 12,4 C 15,0 C 13,9 C 74 % 1014,8 hPa 0,0 l/m 2 min 0 min 309 W/m 3,2 km/h (1 Bft) 95,74 %
18.04.2020 09:30 12,5 C 15,0 C 13,9 C 74 % 1014,8 hPa 0,0 l/m 0 min 0 min 218 W/m 3,2 km/h (1 Bft) 95,74 %
18.04.2020 09:32 12,6 C 14,4 C 13,9 C 74 % 1014,8 hPa 0,0 l/m 0 min 0 min 217 W/m 3,2 km/h (1 Bft) 95,74 %
18.04.2020 09:34 12,7 C 14,4 C 13,9 C 73 % 1014,8 hPa 0,0 l/m 0 min 0 min 211 W/m 3,2 km/h (1 Bft) 95,74 %
18.04.2020 09:36 12,7 C 15,6 C 15,0 C 73 % 1014,9 hPa 0,0 l/m 0 min 0 min 221 W/m 3,2 km/h (1 Bft) 95,65 %
18.04.2020 09:38 12,8 C 16,7 C 16,1 C 74 % 1014,9 hPa 0,0 l/m 2 min 0 min 391 W/m 3,2 km/h (1 Bft) 93,62 %
18.04.2020 09:40 12,9 C 17,2 C 16,7 C 74 % 1014,9 hPa 0,0 l/m 2 min 0 min 324 W/m 0,0 km/h (0 Bft) 95,74 %
18.04.2020 09:42 13,1 C 18,3 C 18,3 C 74 % 1014,9 hPa 0,0 l/m 2 min 0 min 402 W/m 0,0 km/h (0 Bft) 93,62 %
18.04.2020 09:44 13,3 C 18,9 C 18,9 C 74 % 1014,8 hPa 0,0 l/m 2 min 0 min 352 W/m 0,0 km/h (0 Bft) 95,74 %
18.04.2020 09:46 13,4 C 19,4 C 19,4 C 74 % 1014,8 hPa 0,0 l/m 2 min 0 min 411 W/m 0,0 km/h (0 Bft) 95,65 %
18.04.2020 09:48 13,6 C 18,9 C 18,9 C 73 % 1014,9 hPa 0,0 l/m 2 min 0 min 380 W/m 3,2 km/h (1 Bft) 95,74 %
18.04.2020 09:50 13,7 C 18,9 C 18,9 C 72 % 1014,9 hPa 0,0 l/m 2 min 0 min 365 W/m 6,4 km/h (2 Bft) 93,62 %
18.04.2020 09:52 13,9 C 18,9 C 20,0 C 72 % 1014,9 hPa 0,0 l/m 2 min 0 min 453 W/m 3,2 km/h (1 Bft) 95,74 %
18.04.2020 09:54 14,0 C 19,4 C 18,9 C 70 % 1014,9 hPa 0,0 l/m 2 min 0 min 448 W/m 3,2 km/h (1 Bft) 95,74 %
18.04.2020 09:56 14,1 C 20,0 C 18,9 C 70 % 1014,9 hPa 0,0 l/m 2 min 0 min 413 W/m 0,0 km/h (0 Bft) 97,87 %
18.04.2020 09:58 14,3 C 20,0 C 19,4 C 70 % 1014,9 hPa 0,0 l/m 2 min 0 min 431 W/m 3,2 km/h (1 Bft) 97,83 %
18.04.2020 10:00 14,3 C 20,0 C 19,4 C 70 % 1014,9 hPa 0,0 l/m 2 min 0 min 413 W/m 3,2 km/h (1 Bft) 97,87 %
18.04.2020 10:02 14,5 C 18,9 C 19,4 C 70 % 1014,9 hPa 0,0 l/m 2 min 0 min 375 W/m 6,4 km/h (2 Bft) 97,87 %
18.04.2020 10:04 14,7 C 18,9 C 18,9 C 70 % 1014,9 hPa 0,0 l/m 2 min 0 min 340 W/m 3,2 km/h (1 Bft) 97,87 %
18.04.2020 10:06 14,8 C 18,3 C 18,3 C 70 % 1014,9 hPa 0,0 l/m 2 min 0 min 300 W/m 6,4 km/h (2 Bft) 100,00 %
18.04.2020 10:08 14,9 C 17,8 C 17,8 C 69 % 1014,9 hPa 0,0 l/m 2 min 0 min 266 W/m 3,2 km/h (1 Bft) 97,87 %
18.04.2020 10:10 15,0 C 17,8 C 17,2 C 69 % 1014,9 hPa 0,0 l/m 0 min 0 min 242 W/m 6,4 km/h (2 Bft) 100,00 %
18.04.2020 10:12 15,1 C 17,2 C 16,7 C 69 % 1015,0 hPa 0,0 l/m 0 min 0 min 241 W/m 6,4 km/h (2 Bft) 100,00 %
18.04.2020 10:14 15,1 C 17,2 C 16,1 C 69 % 1015,0 hPa 0,0 l/m 0 min 0 min 252 W/m 0,0 km/h (0 Bft) 100,00 %
18.04.2020 10:16 15,2 C 16,7 C 16,1 C 68 % 1015,0 hPa 0,0 l/m 0 min 0 min 235 W/m 0,0 km/h (0 Bft) 100,00 %
18.04.2020 10:18 15,2 C 16,7 C 16,1 C 69 % 1014,9 hPa 0,0 l/m 0 min 0 min 235 W/m 0,0 km/h (0 Bft) 100,00 %
18.04.2020 10:20 15,3 C 16,7 C 15,6 C 68 % 1015,0 hPa 0,0 l/m 0 min 0 min 247 W/m 3,2 km/h (1 Bft) 100,00 %
18.04.2020 10:22 15,3 C 16,7 C 16,1 C 68 % 1015,1 hPa 0,0 l/m 0 min 0 min 259 W/m 0,0 km/h (0 Bft) 100,00 %
18.04.2020 10:24 15,3 C 17,2 C 16,1 C 67 % 1015,0 hPa 0,0 l/m 0 min 0 min 270 W/m 0,0 km/h (0 Bft) 100,00 %
18.04.2020 10:26 15,3 C 17,2 C 16,1 C 68 % 1015,1 hPa 0,0 l/m 0 min 0 min 272 W/m 0,0 km/h (0 Bft) 100,00 %
18.04.2020 10:28 15,4 C 17,2 C 16,1 C 68 % 1015,1 hPa 0,0 l/m 0 min 0 min 260 W/m 0,0 km/h (0 Bft) 100,00 %
18.04.2020 10:30 15,4 C 17,8 C 16,7 C 68 % 1015,0 hPa 0,0 l/m 0 min 0 min 267 W/m 0,0 km/h (0 Bft) 97,87 %
18.04.2020 10:32 15,5 C 17,8 C 16,7 C 69 % 1015,0 hPa 0,0 l/m 0 min 0 min 279 W/m 3,2 km/h (1 Bft) 95,74 %
18.04.2020 10:34 15,5 C 17,8 C 16,7 C 68 % 1015,1 hPa 0,0 l/m 2 min 0 min 289 W/m 0,0 km/h (0 Bft) 100,00 %
18.04.2020 10:36 15,6 C 17,8 C 16,7 C 67 % 1015,0 hPa 0,0 l/m 2 min 0 min 310 W/m 6,4 km/h (2 Bft) 100,00 %
18.04.2020 10:38 15,6 C 18,3 C 17,2 C 67 % 1015,0 hPa 0,0 l/m 2 min 0 min 339 W/m 6,4 km/h (2 Bft) 97,87 %
18.04.2020 10:40 15,6 C 18,9 C 17,8 C 67 % 1015,1 hPa 0,0 l/m 2 min 0 min 357 W/m 3,2 km/h (1 Bft) 97,87 %
18.04.2020 10:42 15,7 C 18,9 C 18,3 C 67 % 1015,0 hPa 0,0 l/m 2 min 0 min 343 W/m 3,2 km/h (1 Bft) 97,87 %
18.04.2020 10:44 15,8 C 18,9 C 18,3 C 68 % 1015,0 hPa 0,0 l/m 2 min 0 min 340 W/m 3,2 km/h (1 Bft) 95,65 %
18.04.2020 10:46 15,8 C 19,4 C 18,3 C 68 % 1015,1 hPa 0,0 l/m 2 min 0 min 324 W/m 3,2 km/h (1 Bft) 95,74 %
18.04.2020 10:48 15,9 C 18,9 C 17,8 C 67 % 1015,1 hPa 0,0 l/m 2 min 0 min 319 W/m 0,0 km/h (0 Bft) 97,87 %
18.04.2020 10:50 15,9 C 18,9 C 17,8 C 66 % 1015,1 hPa 0,0 l/m 2 min 0 min 319 W/m 0,0 km/h (0 Bft) 97,87 %
18.04.2020 10:52 16,0 C 18,9 C 17,8 C 66 % 1015,0 hPa 0,0 l/m 2 min 0 min 318 W/m 3,2 km/h (1 Bft) 97,87 %
18.04.2020 10:54 16,1 C 19,4 C 18,3 C 67 % 1015,0 hPa 0,0 l/m 2 min 0 min 344 W/m 3,2 km/h (1 Bft) 97,87 %
18.04.2020 10:56 16,2 C 18,9 C 18,3 C 67 % 1015,0 hPa 0,0 l/m 0 min 0 min 294 W/m 3,2 km/h (1 Bft) 97,83 %
18.04.2020 10:58 16,2 C 18,9 C 17,8 C 65 % 1015,1 hPa 0,0 l/m 0 min 0 min 279 W/m 3,2 km/h (1 Bft) 97,87 %
18.04.2020 11:00 16,3 C 18,9 C 17,8 C 66 % 1015,0 hPa 0,0 l/m 0 min 0 min 303 W/m 3,2 km/h (1 Bft) 97,87 %
18.04.2020 11:02 16,3 C 18,9 C 17,8 C 66 % 1015,1 hPa 0,0 l/m 0 min 0 min 296 W/m 0,0 km/h (0 Bft) 95,74 %
18.04.2020 11:04 16,4 C 20,0 C 18,3 C 67 % 1015,1 hPa 0,0 l/m 2 min 0 min 350 W/m 6,4 km/h (2 Bft) 97,87 %
18.04.2020 11:06 16,5 C 20,0 C 18,3 C 67 % 1015,2 hPa 0,0 l/m 2 min 0 min 360 W/m 6,4 km/h (2 Bft) 97,87 %
18.04.2020 11:08 16,6 C 20,6 C 18,3 C 66 % 1015,2 hPa 0,0 l/m 2 min 0 min 391 W/m 6,4 km/h (2 Bft) 97,83 %
18.04.2020 11:10 16,6 C 20,6 C 18,3 C 65 % 1015,3 hPa 0,0 l/m 2 min 0 min 450 W/m 12,9 km/h (3 Bft) 97,87 %
18.04.2020 11:12 16,7 C 21,7 C 18,3 C 64 % 1015,3 hPa 0,0 l/m 2 min 0 min 493 W/m 9,7 km/h (2 Bft) 97,87 %
18.04.2020 11:14 16,8 C 22,2 C 18,3 C 64 % 1015,3 hPa 0,0 l/m 2 min 0 min 560 W/m 6,4 km/h (2 Bft) 97,87 %
18.04.2020 11:16 16,9 C 23,3 C 18,3 C 64 % 1015,3 hPa 0,0 l/m 2 min 0 min 608 W/m 12,9 km/h (3 Bft) 97,87 %
18.04.2020 11:18 17,1 C 22,8 C 18,3 C 62 % 1015,4 hPa 0,0 l/m 2 min 0 min 626 W/m 12,9 km/h (3 Bft) 97,87 %
18.04.2020 11:20 17,1 C 21,1 C 18,3 C 62 % 1015,4 hPa 0,0 l/m 2 min 0 min 431 W/m 6,4 km/h (2 Bft) 95,65 %
18.04.2020 11:22 17,2 C 21,1 C 18,3 C 62 % 1015,3 hPa 0,0 l/m 2 min 0 min 436 W/m 9,7 km/h (2 Bft) 97,87 %
18.04.2020 11:24 17,3 C 20,6 C 18,3 C 62 % 1015,3 hPa 0,0 l/m 2 min 0 min 360 W/m 3,2 km/h (1 Bft) 100,00 %
18.04.2020 11:26 17,3 C 20,0 C 18,3 C 62 % 1015,2 hPa 0,0 l/m 2 min 0 min 333 W/m 3,2 km/h (1 Bft) 97,87 %
18.04.2020 11:28 17,4 C 20,0 C 18,9 C 62 % 1015,2 hPa 0,0 l/m 0 min 0 min 328 W/m 9,7 km/h (2 Bft) 100,00 %
18.04.2020 11:30 17,4 C 19,4 C 18,3 C 62 % 1015,2 hPa 0,0 l/m 0 min 0 min 326 W/m 6,4 km/h (2 Bft) 100,00 %
18.04.2020 11:32 17,5 C 19,4 C 18,3 C 62 % 1015,2 hPa 0,0 l/m 0 min 0 min 324 W/m 6,4 km/h (2 Bft) 97,83 %
18.04.2020 11:34 17,5 C 19,4 C 18,3 C 62 % 1015,2 hPa 0,0 l/m 0 min 0 min 311 W/m 6,4 km/h (2 Bft) 95,74 %
18.04.2020 11:36 17,6 C 19,4 C 18,3 C 62 % 1015,2 hPa 0,0 l/m 0 min 0 min 302 W/m 3,2 km/h (1 Bft) 97,87 %
18.04.2020 11:38 17,6 C 18,9 C 18,3 C 61 % 1015,1 hPa 0,0 l/m 0 min 0 min 301 W/m 6,4 km/h (2 Bft) 97,87 %
18.04.2020 11:40 17,6 C 19,4 C 18,3 C 62 % 1015,1 hPa 0,0 l/m 0 min 0 min 308 W/m 6,4 km/h (2 Bft) 95,74 %
18.04.2020 11:42 17,6 C 19,4 C 18,3 C 62 % 1015,2 hPa 0,0 l/m 0 min 0 min 318 W/m 3,2 km/h (1 Bft) 97,87 %
18.04.2020 11:44 17,7 C 18,9 C 18,3 C 61 % 1015,2 hPa 0,0 l/m 0 min 0 min 333 W/m 3,2 km/h (1 Bft) 97,83 %
18.04.2020 11:46 17,7 C 18,9 C 18,3 C 61 % 1015,3 hPa 0,0 l/m 0 min 0 min 318 W/m 6,4 km/h (2 Bft) 97,87 %
18.04.2020 11:48 17,7 C 18,9 C 18,3 C 62 % 1015,3 hPa 0,0 l/m 0 min 0 min 293 W/m 3,2 km/h (1 Bft) 97,87 %
18.04.2020 11:50 17,7 C 18,9 C 18,3 C 61 % 1015,3 hPa 0,0 l/m 0 min 0 min 278 W/m 0,0 km/h (0 Bft) 97,87 %
18.04.2020 11:52 17,7 C 18,9 C 18,3 C 61 % 1015,3 hPa 0,0 l/m 0 min 0 min 264 W/m 0,0 km/h (0 Bft) 97,87 %
18.04.2020 11:54 17,8 C 18,9 C 17,8 C 61 % 1015,3 hPa 0,0 l/m 0 min 0 min 259 W/m 3,2 km/h (1 Bft) 97,83 %
18.04.2020 11:56 17,8 C 17,8 C 17,8 C 60 % 1015,3 hPa 0,0 l/m 0 min 0 min 256 W/m 9,7 km/h (2 Bft) 95,74 %
18.04.2020 11:58 17,8 C 17,8 C 17,8 C 60 % 1015,4 hPa 0,0 l/m 0 min 0 min 257 W/m 6,4 km/h (2 Bft) 97,87 %
18.04.2020 12:00 17,8 C 18,3 C 17,2 C 60 % 1015,4 hPa 0,0 l/m 0 min 0 min 256 W/m 6,4 km/h (2 Bft) 97,87 %
18.04.2020 12:02 17,8 C 18,3 C 17,2 C 59 % 1015,4 hPa 0,0 l/m 0 min 0 min 251 W/m 0,0 km/h (0 Bft) 95,74 %
18.04.2020 12:04 17,8 C 18,3 C 17,8 C 61 % 1015,4 hPa 0,0 l/m 0 min 0 min 251 W/m 6,4 km/h (2 Bft) 97,87 %
18.04.2020 12:06 17,8 C 18,9 C 17,8 C 61 % 1015,4 hPa 0,0 l/m 0 min 0 min 256 W/m 3,2 km/h (1 Bft) 97,83 %
18.04.2020 12:08 17,8 C 18,9 C 17,8 C 61 % 1015,4 hPa 0,0 l/m 0 min 0 min 260 W/m 0,0 km/h (0 Bft) 97,87 %
18.04.2020 12:10 17,8 C 18,9 C 17,8 C 61 % 1015,4 hPa 0,0 l/m 0 min 0 min 268 W/m 0,0 km/h (0 Bft) 97,87 %
18.04.2020 12:12 17,8 C 18,9 C 17,8 C 60 % 1015,4 hPa 0,0 l/m 0 min 0 min 272 W/m 0,0 km/h (0 Bft) 97,87 %
18.04.2020 12:14 17,9 C 18,9 C 17,8 C 61 % 1015,4 hPa 0,0 l/m 0 min 0 min 280 W/m 0,0 km/h (0 Bft) 100,00 %
18.04.2020 12:16 17,9 C 19,4 C 18,3 C 62 % 1015,3 hPa 0,0 l/m 0 min 0 min 288 W/m 6,4 km/h (2 Bft) 100,00 %
18.04.2020 12:18 17,9 C 19,4 C 18,3 C 62 % 1015,3 hPa 0,0 l/m 0 min 0 min 303 W/m 6,4 km/h (2 Bft) 100,00 %
18.04.2020 12:20 17,9 C 20,0 C 18,3 C 60 % 1015,3 hPa 0,0 l/m 0 min 0 min 307 W/m 3,2 km/h (1 Bft) 100,00 %
18.04.2020 12:22 17,9 C 20,0 C 18,3 C 60 % 1015,3 hPa 0,0 l/m 0 min 0 min 322 W/m 0,0 km/h (0 Bft) 100,00 %
18.04.2020 12:24 17,9 C 20,6 C 18,3 C 61 % 1015,3 hPa 0,0 l/m 0 min 0 min 358 W/m 0,0 km/h (0 Bft) 100,00 %
18.04.2020 12:26 18,0 C 20,0 C 18,9 C 61 % 1015,3 hPa 0,0 l/m 2 min 0 min 367 W/m 6,4 km/h (2 Bft) 100,00 %
18.04.2020 12:28 18,1 C 20,6 C 18,9 C 61 % 1015,3 hPa 0,0 l/m 2 min 0 min 366 W/m 9,7 km/h (2 Bft) 100,00 %
18.04.2020 12:30 18,1 C 20,6 C 18,9 C 61 % 1015,3 hPa 0,0 l/m 2 min 0 min 366 W/m 6,4 km/h (2 Bft) 100,00 %
18.04.2020 12:32 18,1 C 20,6 C 18,9 C 61 % 1015,3 hPa 0,0 l/m 2 min 0 min 403 W/m 6,4 km/h (2 Bft) 97,87 %
18.04.2020 12:34 18,2 C 21,7 C 19,4 C 63 % 1015,3 hPa 0,0 l/m 2 min 0 min 434 W/m 3,2 km/h (1 Bft) 100,00 %
18.04.2020 12:36 18,3 C 22,2 C 19,4 C 63 % 1015,3 hPa 0,0 l/m 2 min 0 min 456 W/m 9,7 km/h (2 Bft) 97,87 %
18.04.2020 12:38 18,3 C 23,3 C 20,0 C 63 % 1015,3 hPa 0,0 l/m 2 min 0 min 549 W/m 6,4 km/h (2 Bft) 100,00 %
18.04.2020 12:40 18,5 C 23,9 C 20,0 C 63 % 1015,3 hPa 0,0 l/m 2 min 0 min 595 W/m 9,7 km/h (2 Bft) 100,00 %
18.04.2020 12:42 18,6 C 24,4 C 20,0 C 63 % 1015,3 hPa 0,0 l/m 2 min 0 min 704 W/m 9,7 km/h (2 Bft) 100,00 %
18.04.2020 12:44 18,8 C 25,0 C 20,6 C 62 % 1015,4 hPa 0,0 l/m 2 min 0 min 679 W/m 6,4 km/h (2 Bft) 97,87 %
18.04.2020 12:46 18,9 C 25,0 C 20,6 C 61 % 1015,4 hPa 0,0 l/m 2 min 0 min 690 W/m 9,7 km/h (2 Bft) 100,00 %
18.04.2020 12:48 19,1 C 26,1 C 20,6 C 61 % 1015,4 hPa 0,0 l/m 2 min 0 min 780 W/m 12,9 km/h (3 Bft) 100,00 %
18.04.2020 12:50 19,3 C 26,1 C 21,1 C 61 % 1015,4 hPa 0,0 l/m 2 min 0 min 677 W/m 9,7 km/h (2 Bft) 100,00 %
18.04.2020 12:52 19,4 C 26,1 C 21,1 C 60 % 1015,4 hPa 0,0 l/m 2 min 0 min 632 W/m 12,9 km/h (3 Bft) 100,00 %
18.04.2020 12:54 19,6 C 26,7 C 21,7 C 60 % 1015,4 hPa 0,0 l/m 2 min 0 min 768 W/m 16,1 km/h (3 Bft) 100,00 %
18.04.2020 12:56 19,7 C 26,7 C 21,7 C 59 % 1015,4 hPa 0,0 l/m 2 min 0 min 798 W/m 12,9 km/h (3 Bft) 97,87 %
18.04.2020 12:58 19,8 C 26,7 C 21,7 C 59 % 1015,4 hPa 0,0 l/m 2 min 0 min 792 W/m 12,9 km/h (3 Bft) 100,00 %
18.04.2020 13:00 19,9 C 25,6 C 21,1 C 58 % 1015,4 hPa 0,0 l/m 2 min 0 min 742 W/m 6,4 km/h (2 Bft) 100,00 %
18.04.2020 13:02 20,1 C 24,4 C 21,1 C 59 % 1015,4 hPa 0,0 l/m 2 min 0 min 564 W/m 16,1 km/h (3 Bft) 100,00 %
18.04.2020 13:04 20,1 C 22,8 C 21,1 C 58 % 1015,5 hPa 0,0 l/m 2 min 0 min 468 W/m 12,9 km/h (3 Bft) 97,83 %
18.04.2020 13:06 20,1 C 21,1 C 20,0 C 58 % 1015,5 hPa 0,0 l/m 0 min 0 min 337 W/m 6,4 km/h (2 Bft) 93,62 %
18.04.2020 13:08 20,1 C 20,6 C 19,4 C 57 % 1015,4 hPa 0,0 l/m 0 min 0 min 320 W/m 6,4 km/h (2 Bft) 100,00 %
18.04.2020 13:10 20,1 C 20,6 C 19,4 C 58 % 1015,4 hPa 0,0 l/m 0 min 0 min 308 W/m 6,4 km/h (2 Bft) 100,00 %
18.04.2020 13:12 20,1 C 20,6 C 19,4 C 58 % 1015,5 hPa 0,0 l/m 0 min 0 min 307 W/m 6,4 km/h (2 Bft) 100,00 %
18.04.2020 13:14 20,1 C 20,6 C 19,4 C 58 % 1015,5 hPa 0,0 l/m 0 min 0 min 305 W/m 0,0 km/h (0 Bft) 97,87 %
18.04.2020 13:16 20,0 C 20,0 C 19,4 C 58 % 1015,4 hPa 0,0 l/m 0 min 0 min 300 W/m 6,4 km/h (2 Bft) 95,65 %
18.04.2020 13:18 19,9 C 20,0 C 19,4 C 59 % 1015,5 hPa 0,0 l/m 0 min 0 min 292 W/m 0,0 km/h (0 Bft) 100,00 %
18.04.2020 13:20 19,9 C 20,0 C 19,4 C 59 % 1015,5 hPa 0,0 l/m 0 min 0 min 285 W/m 9,7 km/h (2 Bft) 100,00 %
18.04.2020 13:22 19,9 C 20,6 C 19,4 C 59 % 1015,5 hPa 0,0 l/m 0 min 0 min 280 W/m 9,7 km/h (2 Bft) 100,00 %
18.04.2020 13:24 19,8 C 20,0 C 18,9 C 59 % 1015,5 hPa 0,0 l/m 0 min 0 min 277 W/m 9,7 km/h (2 Bft) 97,87 %
18.04.2020 13:26 19,8 C 20,0 C 19,4 C 60 % 1015,5 hPa 0,0 l/m 0 min 0 min 276 W/m 3,2 km/h (1 Bft) 95,74 %
18.04.2020 13:28 19,8 C 20,0 C 19,4 C 61 % 1015,5 hPa 0,0 l/m 0 min 0 min 282 W/m 0,0 km/h (0 Bft) 97,83 %
18.04.2020 13:30 19,8 C 20,0 C 19,4 C 61 % 1015,5 hPa 0,0 l/m 0 min 0 min 285 W/m 0,0 km/h (0 Bft) 95,74 %
18.04.2020 13:32 19,7 C 20,0 C 19,4 C 61 % 1015,5 hPa 0,0 l/m 0 min 0 min 280 W/m 9,7 km/h (2 Bft) 95,74 %
18.04.2020 13:34 19,7 C 20,0 C 19,4 C 61 % 1015,5 hPa 0,0 l/m 0 min 0 min 269 W/m 12,9 km/h (3 Bft) 95,74 %
18.04.2020 13:36 19,7 C 20,0 C 19,4 C 60 % 1015,5 hPa 0,0 l/m 0 min 0 min 257 W/m 12,9 km/h (3 Bft) 95,74 %
18.04.2020 13:38 19,6 C 19,4 C 19,4 C 61 % 1015,5 hPa 0,0 l/m 0 min 0 min 242 W/m 9,7 km/h (2 Bft) 93,62 %
18.04.2020 13:40 19,6 C 19,4 C 18,9 C 60 % 1015,6 hPa 0,0 l/m 0 min 0 min 230 W/m 9,7 km/h (2 Bft) 95,65 %
18.04.2020 13:42 19,5 C 19,4 C 18,9 C 61 % 1015,6 hPa 0,0 l/m 0 min 0 min 217 W/m 9,7 km/h (2 Bft) 95,74 %
18.04.2020 13:44 19,5 C 19,4 C 18,9 C 61 % 1015,5 hPa 0,0 l/m 0 min 0 min 206 W/m 12,9 km/h (3 Bft) 95,74 %
18.04.2020 13:46 19,4 C 18,9 C 18,9 C 61 % 1015,6 hPa 0,0 l/m 0 min 0 min 198 W/m 6,4 km/h (2 Bft) 95,74 %
18.04.2020 13:48 19,4 C 18,9 C 18,3 C 61 % 1015,6 hPa 0,0 l/m 0 min 0 min 193 W/m 12,9 km/h (3 Bft) 95,74 %
18.04.2020 13:50 19,3 C 18,9 C 18,3 C 61 % 1015,6 hPa 0,0 l/m 0 min 0 min 193 W/m 9,7 km/h (2 Bft) 97,87 %
18.04.2020 13:52 19,2 C 18,9 C 18,3 C 62 % 1015,5 hPa 0,0 l/m 0 min 2 min 204 W/m 9,7 km/h (2 Bft) 95,65 %
18.04.2020 13:54 19,2 C 18,9 C 17,8 C 63 % 1015,6 hPa 0,0 l/m 0 min 0 min 236 W/m 6,4 km/h (2 Bft) 95,74 %
18.04.2020 13:56 19,2 C 19,4 C 18,3 C 64 % 1015,6 hPa 0,0 l/m 0 min 0 min 280 W/m 9,7 km/h (2 Bft) 95,74 %
18.04.2020 13:58 19,1 C 20,0 C 18,9 C 63 % 1015,6 hPa 0,0 l/m 0 min 0 min 324 W/m 9,7 km/h (2 Bft) 93,62 %
18.04.2020 14:00 19,1 C 20,0 C 18,9 C 64 % 1015,7 hPa 0,0 l/m 0 min 0 min 348 W/m 12,9 km/h (3 Bft) 93,62 %
18.04.2020 14:02 19,1 C 20,0 C 18,9 C 64 % 1015,7 hPa 0,0 l/m 0 min 0 min 360 W/m 12,9 km/h (3 Bft) 95,74 %
18.04.2020 14:04 19,1 C 20,0 C 19,4 C 63 % 1015,6 hPa 0,0 l/m 0 min 0 min 367 W/m 16,1 km/h (3 Bft) 93,48 %
18.04.2020 14:06 19,1 C 20,0 C 19,4 C 64 % 1015,7 hPa 0,0 l/m 2 min 0 min 387 W/m 9,7 km/h (2 Bft) 93,62 %
18.04.2020 14:08 19,0 C 20,6 C 19,4 C 63 % 1015,7 hPa 0,0 l/m 2 min 0 min 406 W/m 12,9 km/h (3 Bft) 91,49 %
18.04.2020 14:10 19,0 C 20,6 C 19,4 C 62 % 1015,7 hPa 0,0 l/m 2 min 0 min 434 W/m 19,3 km/h (3 Bft) 93,62 %
18.04.2020 14:12 19,0 C 20,0 C 19,4 C 61 % 1015,7 hPa 0,0 l/m 2 min 0 min 437 W/m 6,4 km/h (2 Bft) 91,49 %
18.04.2020 14:14 18,9 C 20,6 C 19,4 C 61 % 1015,7 hPa 0,0 l/m 2 min 0 min 429 W/m 3,2 km/h (1 Bft) 91,30 %
18.04.2020 14:16 19,0 C 20,6 C 19,4 C 61 % 1015,8 hPa 0,0 l/m 2 min 0 min 417 W/m 6,4 km/h (2 Bft) 89,36 %
18.04.2020 14:18 19,0 C 20,0 C 19,4 C 61 % 1015,8 hPa 0,0 l/m 2 min 0 min 416 W/m 16,1 km/h (3 Bft) 95,74 %
18.04.2020 14:20 19,0 C 20,6 C 19,4 C 61 % 1015,9 hPa 0,0 l/m 2 min 0 min 416 W/m 12,9 km/h (3 Bft) 93,62 %
18.04.2020 14:22 19,0 C 20,6 C 20,0 C 62 % 1015,8 hPa 0,0 l/m 2 min 0 min 438 W/m 9,7 km/h (2 Bft) 95,74 %
18.04.2020 14:24 19,1 C 21,1 C 20,0 C 61 % 1015,8 hPa 0,0 l/m 2 min 0 min 446 W/m 22,5 km/h (4 Bft) 95,74 %
18.04.2020 14:26 19,1 C 21,1 C 20,0 C 62 % 1015,8 hPa 0,0 l/m 2 min 0 min 440 W/m 12,9 km/h (3 Bft) 95,65 %
18.04.2020 14:28 19,1 C 20,6 C 20,0 C 62 % 1015,8 hPa 0,0 l/m 2 min 0 min 429 W/m 12,9 km/h (3 Bft) 95,74 %
18.04.2020 14:30 19,1 C 20,6 C 20,0 C 61 % 1015,9 hPa 0,0 l/m 2 min 0 min 393 W/m 9,7 km/h (2 Bft) 93,62 %
18.04.2020 14:32 19,1 C 20,6 C 19,4 C 60 % 1015,9 hPa 0,0 l/m 2 min 0 min 397 W/m 12,9 km/h (3 Bft) 93,62 %
18.04.2020 14:34 19,1 C 20,6 C 20,0 C 62 % 1015,8 hPa 0,0 l/m 2 min 0 min 367 W/m 6,4 km/h (2 Bft) 95,74 %
18.04.2020 14:36 19,1 C 20,0 C 19,4 C 61 % 1015,8 hPa 0,0 l/m 0 min 0 min 340 W/m 12,9 km/h (3 Bft) 95,74 %
18.04.2020 14:38 19,1 C 19,4 C 18,9 C 60 % 1015,9 hPa 0,0 l/m 0 min 0 min 309 W/m 12,9 km/h (3 Bft) 97,83 %
18.04.2020 14:40 19,1 C 19,4 C 18,9 C 61 % 1015,9 hPa 0,0 l/m 0 min 0 min 283 W/m 6,4 km/h (2 Bft) 97,87 %
18.04.2020 14:42 19,1 C 18,9 C 18,9 C 60 % 1015,9 hPa 0,0 l/m 0 min 0 min 258 W/m 9,7 km/h (2 Bft) 100,00 %
18.04.2020 14:44 19,0 C 18,9 C 18,3 C 61 % 1015,9 hPa 0,0 l/m 0 min 0 min 239 W/m 16,1 km/h (3 Bft) 100,00 %
18.04.2020 14:46 18,9 C 18,9 C 18,3 C 61 % 1016,0 hPa 0,0 l/m 0 min 0 min 234 W/m 6,4 km/h (2 Bft) 100,00 %
18.04.2020 14:48 18,9 C 18,9 C 18,3 C 60 % 1015,9 hPa 0,0 l/m 0 min 0 min 242 W/m 9,7 km/h (2 Bft) 100,00 %
18.04.2020 14:50 18,8 C 18,9 C 18,3 C 61 % 1016,0 hPa 0,0 l/m 0 min 0 min 267 W/m 9,7 km/h (2 Bft) 100,00 %
18.04.2020 14:52 18,8 C 19,4 C 18,3 C 61 % 1016,0 hPa 0,0 l/m 0 min 0 min 311 W/m 12,9 km/h (3 Bft) 100,00 %
18.04.2020 14:54 18,8 C 19,4 C 18,3 C 61 % 1016,1 hPa 0,0 l/m 2 min 0 min 367 W/m 9,7 km/h (2 Bft) 100,00 %
18.04.2020 14:56 18,7 C 19,4 C 18,9 C 61 % 1016,0 hPa 0,0 l/m 2 min 0 min 398 W/m 12,9 km/h (3 Bft) 97,87 %
18.04.2020 14:58 18,7 C 19,4 C 18,9 C 61 % 1016,0 hPa 0,0 l/m 2 min 0 min 382 W/m 12,9 km/h (3 Bft) 100,00 %
18.04.2020 15:00 18,7 C 19,4 C 18,9 C 62 % 1016,0 hPa 0,0 l/m 0 min 0 min 347 W/m 3,2 km/h (1 Bft) 100,00 %
18.04.2020 15:02 18,7 C 18,9 C 18,9 C 61 % 1016,0 hPa 0,0 l/m 0 min 0 min 310 W/m 12,9 km/h (3 Bft) 97,83 %
18.04.2020 15:04 18,7 C 18,9 C 18,3 C 61 % 1016,1 hPa 0,0 l/m 0 min 0 min 288 W/m 16,1 km/h (3 Bft) 100,00 %
18.04.2020 15:06 18,6 C 18,9 C 18,3 C 62 % 1016,0 hPa 0,0 l/m 0 min 0 min 275 W/m 12,9 km/h (3 Bft) 100,00 %
18.04.2020 15:08 18,6 C 18,3 C 18,3 C 62 % 1016,0 hPa 0,0 l/m 0 min 0 min 253 W/m 12,9 km/h (3 Bft) 97,87 %
18.04.2020 15:10 18,6 C 18,3 C 18,3 C 63 % 1015,9 hPa 0,0 l/m 0 min 0 min 227 W/m 6,4 km/h (2 Bft) 100,00 %
18.04.2020 15:12 18,6 C 18,3 C 17,8 C 63 % 1016,0 hPa 0,0 l/m 0 min 0 min 202 W/m 6,4 km/h (2 Bft) 100,00 %
18.04.2020 15:14 18,5 C 17,8 C 17,2 C 63 % 1015,9 hPa 0,0 l/m 0 min 0 min 183 W/m 9,7 km/h (2 Bft) 100,00 %
18.04.2020 15:16 18,4 C 17,8 C 17,2 C 63 % 1015,9 hPa 0,0 l/m 0 min 2 min 176 W/m 6,4 km/h (2 Bft) 97,87 %
18.04.2020 15:18 18,4 C 17,8 C 17,2 C 63 % 1016,0 hPa 0,0 l/m 0 min 0 min 177 W/m 3,2 km/h (1 Bft) 97,87 %
18.04.2020 15:20 18,4 C 17,8 C 17,2 C 64 % 1016,0 hPa 0,0 l/m 0 min 0 min 181 W/m 9,7 km/h (2 Bft) 100,00 %
18.04.2020 15:22 18,3 C 17,8 C 17,2 C 64 % 1016,0 hPa 0,0 l/m 0 min 0 min 184 W/m 3,2 km/h (1 Bft) 100,00 %
18.04.2020 15:24 18,3 C 17,8 C 17,2 C 65 % 1016,0 hPa 0,0 l/m 0 min 0 min 184 W/m 9,7 km/h (2 Bft) 100,00 %
18.04.2020 15:26 18,2 C 17,8 C 17,2 C 65 % 1016,1 hPa 0,0 l/m 0 min 0 min 177 W/m 6,4 km/h (2 Bft) 100,00 %
18.04.2020 15:28 18,2 C 17,8 C 17,2 C 65 % 1016,0 hPa 0,0 l/m 0 min 0 min 177 W/m 3,2 km/h (1 Bft) 100,00 %
18.04.2020 15:30 18,2 C 17,8 C 17,8 C 66 % 1016,0 hPa 0,0 l/m 0 min 0 min 184 W/m 6,4 km/h (2 Bft) 100,00 %
18.04.2020 15:32 18,1 C 17,8 C 17,8 C 66 % 1016,0 hPa 0,0 l/m 0 min 0 min 186 W/m 9,7 km/h (2 Bft) 100,00 %
18.04.2020 15:34 18,1 C 17,2 C 17,2 C 65 % 1016,0 hPa 0,0 l/m 0 min 0 min 184 W/m 3,2 km/h (1 Bft) 100,00 %
18.04.2020 15:36 18,1 C 17,2 C 17,2 C 65 % 1016,0 hPa 0,0 l/m 0 min 0 min 172 W/m 3,2 km/h (1 Bft) 100,00 %
18.04.2020 15:38 18,0 C 17,2 C 17,2 C 65 % 1016,0 hPa 0,0 l/m 0 min 0 min 154 W/m 6,4 km/h (2 Bft) 100,00 %
18.04.2020 15:40 18,0 C 16,7 C 17,2 C 66 % 1016,0 hPa 0,0 l/m 0 min 2 min 134 W/m 9,7 km/h (2 Bft) 100,00 %
18.04.2020 15:42 17,9 C 16,7 C 16,7 C 67 % 1016,0 hPa 0,0 l/m 0 min 0 min 113 W/m 9,7 km/h (2 Bft) 100,00 %
18.04.2020 15:44 17,8 C 16,7 C 16,7 C 67 % 1016,0 hPa 0,0 l/m 0 min 0 min 96 W/m 12,9 km/h (3 Bft) 100,00 %
18.04.2020 15:46 17,8 C 16,1 C 16,7 C 68 % 1015,9 hPa 0,0 l/m 0 min 0 min 88 W/m 6,4 km/h (2 Bft) 97,87 %
18.04.2020 15:48 17,7 C 15,6 C 16,1 C 68 % 1015,9 hPa 0,0 l/m 0 min 2 min 89 W/m 6,4 km/h (2 Bft) 97,83 %
18.04.2020 15:50 17,7 C 15,0 C 15,6 C 70 % 1015,9 hPa 0,0 l/m 0 min 2 min 90 W/m 6,4 km/h (2 Bft) 97,87 %
18.04.2020 15:52 17,6 C 14,4 C 15,0 C 72 % 1015,8 hPa 0,0 l/m 0 min 2 min 86 W/m 6,4 km/h (2 Bft) 97,87 %
18.04.2020 15:54 17,6 C 13,9 C 14,4 C 73 % 1015,7 hPa 0,0 l/m 0 min 2 min 86 W/m 6,4 km/h (2 Bft) 100,00 %
18.04.2020 15:56 17,5 C 13,9 C 13,9 C 73 % 1015,7 hPa 0,0 l/m 0 min 2 min 90 W/m 9,7 km/h (2 Bft) 100,00 %
18.04.2020 15:58 17,4 C 13,3 C 13,3 C 72 % 1015,7 hPa 0,0 l/m 0 min 2 min 100 W/m 6,4 km/h (2 Bft) 100,00 %
18.04.2020 16:00 17,3 C 13,3 C 13,3 C 73 % 1015,7 hPa 0,0 l/m 0 min 2 min 118 W/m 9,7 km/h (2 Bft) 100,00 %
18.04.2020 16:02 17,2 C 13,3 C 13,3 C 75 % 1015,6 hPa 0,2 l/m 0 min 2 min 135 W/m 3,2 km/h (1 Bft) 100,00 %
18.04.2020 16:04 17,1 C 13,3 C 13,3 C 75 % 1015,7 hPa 0,0 l/m 0 min 2 min 150 W/m 3,2 km/h (1 Bft) 100,00 %
18.04.2020 16:06 17,1 C 13,3 C 13,3 C 76 % 1015,7 hPa 0,0 l/m 0 min 2 min 165 W/m 3,2 km/h (1 Bft) 100,00 %
18.04.2020 16:08 17,0 C 13,3 C 13,3 C 78 % 1015,7 hPa 0,2 l/m 0 min 2 min 181 W/m 3,2 km/h (1 Bft) 97,87 %
18.04.2020 16:10 16,9 C 13,9 C 13,9 C 79 % 1015,7 hPa 0,0 l/m 0 min 2 min 198 W/m 6,4 km/h (2 Bft) 100,00 %
18.04.2020 16:12 16,9 C 13,9 C 13,9 C 80 % 1015,6 hPa 0,2 l/m 0 min 2 min 220 W/m 3,2 km/h (1 Bft) 100,00 %
18.04.2020 16:14 16,8 C 13,9 C 13,9 C 81 % 1015,5 hPa 0,0 l/m 0 min 2 min 239 W/m 3,2 km/h (1 Bft) 100,00 %
18.04.2020 16:16 16,8 C 13,9 C 13,3 C 82 % 1015,5 hPa 0,0 l/m 0 min 2 min 244 W/m 0,0 km/h (0 Bft) 100,00 %
18.04.2020 16:18 16,7 C 13,9 C 13,3 C 82 % 1015,5 hPa 0,0 l/m 0 min 0 min 245 W/m 0,0 km/h (0 Bft) 100,00 %
18.04.2020 16:20 16,7 C 14,4 C 13,9 C 82 % 1015,6 hPa 0,0 l/m 0 min 0 min 241 W/m 0,0 km/h (0 Bft) 100,00 %
18.04.2020 16:22 16,7 C 14,4 C 13,9 C 82 % 1015,6 hPa 0,0 l/m 0 min 0 min 244 W/m 3,2 km/h (1 Bft) 100,00 %
18.04.2020 16:24 16,6 C 15,0 C 13,9 C 83 % 1015,7 hPa 0,0 l/m 0 min 0 min 244 W/m 0,0 km/h (0 Bft) 100,00 %
18.04.2020 16:26 16,6 C 15,0 C 14,4 C 83 % 1015,6 hPa 0,0 l/m 0 min 0 min 251 W/m 0,0 km/h (0 Bft) 100,00 %
18.04.2020 16:28 16,6 C 15,6 C 14,4 C 83 % 1015,6 hPa 0,0 l/m 0 min 0 min 271 W/m 3,2 km/h (1 Bft) 100,00 %
18.04.2020 16:30 16,6 C 15,6 C 14,4 C 84 % 1015,6 hPa 0,0 l/m 2 min 0 min 314 W/m 6,4 km/h (2 Bft) 100,00 %
18.04.2020 16:32 16,6 C 15,6 C 14,4 C 84 % 1015,6 hPa 0,0 l/m 2 min 0 min 350 W/m 9,7 km/h (2 Bft) 100,00 %
18.04.2020 16:34 16,5 C 15,6 C 14,4 C 83 % 1015,7 hPa 0,0 l/m 2 min 0 min 351 W/m 9,7 km/h (2 Bft) 100,00 %
18.04.2020 16:36 16,4 C 15,6 C 14,4 C 83 % 1015,6 hPa 0,0 l/m 2 min 0 min 378 W/m 12,9 km/h (3 Bft) 97,87 %
18.04.2020 16:38 16,4 C 16,1 C 15,0 C 83 % 1015,7 hPa 0,0 l/m 2 min 0 min 405 W/m 9,7 km/h (2 Bft) 97,87 %
18.04.2020 16:40 16,5 C 18,3 C 15,6 C 84 % 1015,7 hPa 0,0 l/m 2 min 0 min 436 W/m 3,2 km/h (1 Bft) 95,74 %
18.04.2020 16:42 16,5 C 17,2 C 15,0 C 84 % 1015,7 hPa 0,0 l/m 2 min 0 min 557 W/m 3,2 km/h (1 Bft) 97,87 %
18.04.2020 16:44 16,5 C 16,7 C 15,0 C 83 % 1015,6 hPa 0,0 l/m 2 min 0 min 409 W/m 9,7 km/h (2 Bft) 95,65 %
18.04.2020 16:46 16,6 C 17,2 C 15,0 C 83 % 1015,6 hPa 0,0 l/m 2 min 0 min 360 W/m 3,2 km/h (1 Bft) 93,62 %
18.04.2020 16:48 16,6 C 16,7 C 15,0 C 83 % 1015,6 hPa 0,0 l/m 2 min 0 min 372 W/m 16,1 km/h (3 Bft) 95,74 %
18.04.2020 16:50 16,7 C 16,7 C 15,0 C 83 % 1015,7 hPa 0,0 l/m 2 min 0 min 358 W/m 6,4 km/h (2 Bft) 89,36 %
18.04.2020 16:52 16,7 C 16,7 C 15,0 C 83 % 1015,7 hPa 0,0 l/m 2 min 0 min 373 W/m 9,7 km/h (2 Bft) 95,74 %
18.04.2020 16:54 16,8 C 16,7 C 15,0 C 83 % 1015,7 hPa 0,0 l/m 2 min 0 min 354 W/m 6,4 km/h (2 Bft) 93,62 %
18.04.2020 16:56 16,8 C 16,1 C 15,0 C 82 % 1015,8 hPa 0,0 l/m 0 min 0 min 233 W/m 0,0 km/h (0 Bft) 93,48 %
18.04.2020 16:58 16,8 C 16,1 C 14,4 C 82 % 1015,8 hPa 0,0 l/m 0 min 0 min 194 W/m 3,2 km/h (1 Bft) 95,74 %
18.04.2020 17:00 16,8 C 15,0 C 13,9 C 81 % 1015,8 hPa 0,0 l/m 0 min 0 min 175 W/m 6,4 km/h (2 Bft) 95,74 %
18.04.2020 17:02 16,8 C 15,6 C 13,9 C 80 % 1015,9 hPa 0,0 l/m 0 min 0 min 173 W/m 0,0 km/h (0 Bft) 93,62 %
18.04.2020 17:04 16,9 C 15,6 C 14,4 C 80 % 1015,9 hPa 0,0 l/m 0 min 0 min 186 W/m 3,2 km/h (1 Bft) 93,62 %
18.04.2020 17:06 16,9 C 15,6 C 14,4 C 80 % 1016,0 hPa 0,0 l/m 0 min 0 min 202 W/m 3,2 km/h (1 Bft) 93,62 %
18.04.2020 17:08 16,9 C 15,6 C 14,4 C 80 % 1016,0 hPa 0,0 l/m 0 min 0 min 218 W/m 0,0 km/h (0 Bft) 91,30 %
18.04.2020 17:10 16,9 C 16,1 C 14,4 C 80 % 1016,0 hPa 0,0 l/m 0 min 0 min 241 W/m 3,2 km/h (1 Bft) 93,62 %
18.04.2020 17:12 16,9 C 15,6 C 15,0 C 80 % 1016,0 hPa 0,0 l/m 2 min 0 min 256 W/m 3,2 km/h (1 Bft) 93,62 %
18.04.2020 17:14 16,9 C 15,6 C 15,0 C 80 % 1016,0 hPa 0,0 l/m 2 min 0 min 260 W/m 6,4 km/h (2 Bft) 91,49 %
18.04.2020 17:16 16,9 C 16,1 C 15,0 C 80 % 1016,0 hPa 0,0 l/m 2 min 0 min 289 W/m 3,2 km/h (1 Bft) 93,62 %
18.04.2020 17:18 16,9 C 16,1 C 15,6 C 80 % 1016,1 hPa 0,0 l/m 2 min 0 min 281 W/m 3,2 km/h (1 Bft) 93,62 %
18.04.2020 17:20 16,9 C 16,1 C 15,0 C 80 % 1016,1 hPa 0,0 l/m 2 min 0 min 269 W/m 9,7 km/h (2 Bft) 93,48 %
18.04.2020 17:22 16,9 C 15,6 C 15,0 C 80 % 1016,1 hPa 0,0 l/m 2 min 0 min 242 W/m 3,2 km/h (1 Bft) 93,62 %
18.04.2020 17:24 16,9 C 15,6 C 15,6 C 80 % 1016,1 hPa 0,0 l/m 0 min 0 min 213 W/m 0,0 km/h (0 Bft) 91,49 %
18.04.2020 17:26 17,0 C 15,6 C 15,0 C 80 % 1016,2 hPa 0,2 l/m 0 min 0 min 183 W/m 3,2 km/h (1 Bft) 93,62 %
18.04.2020 17:28 16,9 C 15,6 C 15,0 C 80 % 1016,2 hPa 0,0 l/m 0 min 0 min 167 W/m 3,2 km/h (1 Bft) 91,49 %
18.04.2020 17:30 16,9 C 16,1 C 15,0 C 80 % 1016,1 hPa 0,0 l/m 0 min 0 min 169 W/m 0,0 km/h (0 Bft) 95,74 %
18.04.2020 17:32 16,9 C 16,1 C 15,0 C 80 % 1016,1 hPa 0,0 l/m 0 min 0 min 190 W/m 6,4 km/h (2 Bft) 95,65 %
18.04.2020 17:34 16,9 C 16,7 C 15,0 C 80 % 1016,2 hPa 0,0 l/m 2 min 0 min 254 W/m 12,9 km/h (3 Bft) 95,74 %
18.04.2020 17:36 16,9 C 16,7 C 15,6 C 80 % 1016,2 hPa 0,0 l/m 2 min 0 min 300 W/m 3,2 km/h (1 Bft) 95,74 %
18.04.2020 17:38 16,9 C 17,2 C 16,1 C 80 % 1016,2 hPa 0,0 l/m 2 min 0 min 312 W/m 3,2 km/h (1 Bft) 95,74 %
18.04.2020 17:40 17,0 C 17,8 C 16,1 C 80 % 1016,1 hPa 0,0 l/m 2 min 0 min 309 W/m 9,7 km/h (2 Bft) 97,87 %
18.04.2020 17:42 17,0 C 17,8 C 16,7 C 80 % 1016,2 hPa 0,0 l/m 2 min 0 min 300 W/m 9,7 km/h (2 Bft) 97,87 %
18.04.2020 17:44 17,0 C 17,8 C 16,7 C 79 % 1016,3 hPa 0,0 l/m 2 min 0 min 278 W/m 6,4 km/h (2 Bft) 93,48 %
18.04.2020 17:46 17,0 C 17,8 C 16,7 C 79 % 1016,3 hPa 0,0 l/m 2 min 0 min 258 W/m 9,7 km/h (2 Bft) 95,74 %
18.04.2020 17:48 17,0 C 17,8 C 16,7 C 78 % 1016,2 hPa 0,0 l/m 2 min 0 min 237 W/m 0,0 km/h (0 Bft) 95,74 %
18.04.2020 17:50 17,0 C 17,2 C 16,7 C 78 % 1016,2 hPa 0,0 l/m 2 min 0 min 225 W/m 6,4 km/h (2 Bft) 97,87 %
18.04.2020 17:52 17,1 C 17,8 C 16,7 C 78 % 1016,2 hPa 0,0 l/m 2 min 0 min 220 W/m 3,2 km/h (1 Bft) 97,87 %
18.04.2020 17:54 17,1 C 17,2 C 16,7 C 78 % 1016,2 hPa 0,0 l/m 2 min 0 min 218 W/m 3,2 km/h (1 Bft) 97,83 %
18.04.2020 17:56 17,1 C 17,8 C 16,7 C 78 % 1016,2 hPa 0,0 l/m 2 min 0 min 280 W/m 6,4 km/h (2 Bft) 100,00 %
18.04.2020 17:58 17,1 C 18,9 C 16,7 C 78 % 1016,2 hPa 0,0 l/m 2 min 0 min 341 W/m 9,7 km/h (2 Bft) 97,87 %
18.04.2020 18:00 17,1 C 20,0 C 17,2 C 79 % 1016,2 hPa 0,0 l/m 2 min 0 min 408 W/m 9,7 km/h (2 Bft) 100,00 %
18.04.2020 18:02 17,2 C 19,4 C 17,2 C 79 % 1016,2 hPa 0,0 l/m 2 min 0 min 371 W/m 9,7 km/h (2 Bft) 100,00 %
18.04.2020 18:04 17,3 C 18,3 C 16,7 C 79 % 1016,2 hPa 0,0 l/m 0 min 0 min 165 W/m 6,4 km/h (2 Bft) 100,00 %
18.04.2020 18:08 17,3 C 17,8 C 16,1 C 79 % 1016,2 hPa 0,0 l/m 0 min 0 min 132 W/m 3,2 km/h (1 Bft) 100,00 %
18.04.2020 18:10 17,3 C 17,2 C 16,1 C 78 % 1016,2 hPa 0,0 l/m 0 min 0 min 161 W/m 3,2 km/h (1 Bft) 100,00 %
18.04.2020 18:12 17,3 C 17,2 C 16,1 C 78 % 1016,1 hPa 0,0 l/m 0 min 0 min 173 W/m 0,0 km/h (0 Bft) 96,00 %
18.04.2020 18:14 17,3 C 17,2 C 16,1 C 77 % 1016,1 hPa 0,0 l/m 0 min 0 min 163 W/m 6,4 km/h (2 Bft) 100,00 %
18.04.2020 18:16 17,3 C 17,2 C 16,1 C 77 % 1016,1 hPa 0,0 l/m 0 min 0 min 156 W/m 3,2 km/h (1 Bft) 100,00 %
18.04.2020 18:18 17,3 C 17,2 C 16,1 C 77 % 1016,1 hPa 0,0 l/m 0 min 0 min 162 W/m 0,0 km/h (0 Bft) 100,00 %
18.04.2020 18:20 17,3 C 17,2 C 16,1 C 77 % 1016,1 hPa 0,0 l/m 0 min 0 min 163 W/m 0,0 km/h (0 Bft) 98,00 %
18.04.2020 18:22 17,3 C 17,2 C 16,1 C 77 % 1016,1 hPa 0,0 l/m 2 min 0 min 166 W/m 0,0 km/h (0 Bft) 100,00 %
18.04.2020 18:24 17,3 C 17,2 C 16,1 C 77 % 1016,1 hPa 0,0 l/m 0 min 0 min 154 W/m 0,0 km/h (0 Bft) 100,00 %
18.04.2020 18:26 17,2 C 17,2 C 16,1 C 77 % 1016,2 hPa 0,0 l/m 0 min 0 min 159 W/m 3,2 km/h (1 Bft) 100,00 %
18.04.2020 18:28 17,2 C 17,2 C 16,1 C 77 % 1016,2 hPa 0,0 l/m 2 min 0 min 171 W/m 0,0 km/h (0 Bft) 100,00 %
18.04.2020 18:30 17,2 C 17,2 C 16,1 C 77 % 1016,2 hPa 0,0 l/m 2 min 0 min 180 W/m 3,2 km/h (1 Bft) 100,00 %
18.04.2020 18:32 17,2 C 16,7 C 16,1 C 77 % 1016,2 hPa 0,0 l/m 2 min 0 min 157 W/m 3,2 km/h (1 Bft) 100,00 %
18.04.2020 18:34 17,2 C 16,7 C 16,1 C 76 % 1016,2 hPa 0,0 l/m 0 min 0 min 138 W/m 6,4 km/h (2 Bft) 98,15 %
18.04.2020 18:36 17,2 C 16,7 C 16,1 C 76 % 1016,2 hPa 0,0 l/m 0 min 0 min 133 W/m 6,4 km/h (2 Bft) 100,00 %
18.04.2020 18:38 17,1 C 16,7 C 15,6 C 76 % 1016,2 hPa 0,0 l/m 0 min 0 min 118 W/m 6,4 km/h (2 Bft) 100,00 %
18.04.2020 18:40 17,1 C 16,7 C 15,6 C 76 % 1016,2 hPa 0,0 l/m 0 min 0 min 108 W/m 3,2 km/h (1 Bft) 100,00 %
18.04.2020 18:42 17,1 C 16,7 C 15,6 C 76 % 1016,2 hPa 0,0 l/m 0 min 0 min 118 W/m 6,4 km/h (2 Bft) 100,00 %
18.04.2020 18:44 17,1 C 16,7 C 15,6 C 76 % 1016,2 hPa 0,0 l/m 2 min 0 min 142 W/m 3,2 km/h (1 Bft) 100,00 %
18.04.2020 18:46 17,1 C 17,2 C 16,1 C 76 % 1016,2 hPa 0,0 l/m 2 min 0 min 170 W/m 0,0 km/h (0 Bft) 98,00 %
18.04.2020 18:48 17,1 C 17,2 C 16,1 C 76 % 1016,2 hPa 0,0 l/m 2 min 0 min 183 W/m 3,2 km/h (1 Bft) 100,00 %
18.04.2020 18:50 17,1 C 17,2 C 16,1 C 77 % 1016,3 hPa 0,0 l/m 2 min 0 min 168 W/m 6,4 km/h (2 Bft) 100,00 %
18.04.2020 18:52 17,1 C 17,2 C 16,1 C 77 % 1016,3 hPa 0,0 l/m 2 min 0 min 139 W/m 0,0 km/h (0 Bft) 98,15 %
18.04.2020 18:54 17,1 C 17,2 C 16,1 C 77 % 1016,3 hPa 0,0 l/m 0 min 0 min 113 W/m 3,2 km/h (1 Bft) 100,00 %
18.04.2020 18:56 17,1 C 16,7 C 16,1 C 76 % 1016,3 hPa 0,0 l/m 0 min 0 min 96 W/m 0,0 km/h (0 Bft) 100,00 %
18.04.2020 18:58 17,1 C 16,7 C 15,6 C 77 % 1016,4 hPa 0,0 l/m 0 min 0 min 90 W/m 0,0 km/h (0 Bft) 100,00 %
18.04.2020 19:00 17,0 C 16,1 C 15,6 C 76 % 1016,3 hPa 0,0 l/m 0 min 0 min 81 W/m 0,0 km/h (0 Bft) 98,15 %
18.04.2020 19:02 17,0 C 16,1 C 15,6 C 77 % 1016,3 hPa 0,0 l/m 0 min 0 min 79 W/m 3,2 km/h (1 Bft) 100,00 %
18.04.2020 19:04 17,0 C 16,1 C 15,0 C 77 % 1016,4 hPa 0,0 l/m 0 min 0 min 77 W/m 0,0 km/h (0 Bft) 100,00 %
18.04.2020 19:06 16,9 C 16,1 C 15,0 C 77 % 1016,3 hPa 0,0 l/m 0 min 0 min 75 W/m 0,0 km/h (0 Bft) 100,00 %
18.04.2020 19:08 16,9 C 15,6 C 15,0 C 77 % 1016,3 hPa 0,0 l/m 0 min 0 min 74 W/m 0,0 km/h (0 Bft) 100,00 %
18.04.2020 19:10 16,9 C 15,6 C 15,0 C 77 % 1016,3 hPa 0,0 l/m 0 min 0 min 72 W/m 0,0 km/h (0 Bft) 100,00 %
18.04.2020 19:12 16,9 C 15,6 C 15,0 C 77 % 1016,3 hPa 0,0 l/m 0 min 0 min 70 W/m 3,2 km/h (1 Bft) 100,00 %
18.04.2020 19:14 16,8 C 15,6 C 15,0 C 77 % 1016,3 hPa 0,0 l/m 0 min 0 min 70 W/m 3,2 km/h (1 Bft) 100,00 %
18.04.2020 19:16 16,8 C 15,6 C 15,0 C 78 % 1016,2 hPa 0,0 l/m 0 min 0 min 67 W/m 9,7 km/h (2 Bft) 100,00 %
18.04.2020 19:18 16,8 C 15,6 C 14,4 C 78 % 1016,2 hPa 0,0 l/m 0 min 0 min 62 W/m 0,0 km/h (0 Bft) 100,00 %
18.04.2020 19:20 16,7 C 15,6 C 14,4 C 78 % 1016,2 hPa 0,0 l/m 0 min 0 min 58 W/m 0,0 km/h (0 Bft) 100,00 %
18.04.2020 19:22 16,7 C 15,6 C 14,4 C 78 % 1016,2 hPa 0,0 l/m 0 min 0 min 55 W/m 3,2 km/h (1 Bft) 100,00 %
18.04.2020 19:24 16,7 C 15,6 C 14,4 C 78 % 1016,2 hPa 0,0 l/m 0 min 0 min 53 W/m 3,2 km/h (1 Bft) 100,00 %
18.04.2020 19:26 16,7 C 15,6 C 14,4 C 78 % 1016,1 hPa 0,0 l/m 0 min 0 min 49 W/m 3,2 km/h (1 Bft) 97,96 %
18.04.2020 19:28 16,6 C 15,6 C 14,4 C 77 % 1016,1 hPa 0,0 l/m 0 min 0 min 47 W/m 6,4 km/h (2 Bft) 95,92 %
18.04.2020 19:30 16,6 C 15,0 C 14,4 C 77 % 1016,1 hPa 0,0 l/m 0 min 0 min 46 W/m 3,2 km/h (1 Bft) 100,00 %
18.04.2020 19:32 16,5 C 15,0 C 14,4 C 78 % 1016,1 hPa 0,0 l/m 0 min 0 min 46 W/m 3,2 km/h (1 Bft) 96,30 %
18.04.2020 19:34 16,5 C 15,0 C 14,4 C 78 % 1016,1 hPa 0,0 l/m 0 min 0 min 44 W/m 0,0 km/h (0 Bft) 96,00 %
18.04.2020 19:36 16,4 C 15,0 C 14,4 C 77 % 1016,1 hPa 0,0 l/m 0 min 0 min 42 W/m 3,2 km/h (1 Bft) 97,92 %
18.04.2020 19:38 16,4 C 15,0 C 14,4 C 78 % 1016,1 hPa 0,0 l/m 0 min 0 min 42 W/m 9,7 km/h (2 Bft) 97,87 %
18.04.2020 19:40 16,3 C 15,0 C 14,4 C 78 % 1016,1 hPa 0,0 l/m 0 min 0 min 44 W/m 3,2 km/h (1 Bft) 94,29 %
18.04.2020 19:42 16,3 C 15,0 C 14,4 C 78 % 1016,1 hPa 0,0 l/m 0 min 0 min 40 W/m 3,2 km/h (1 Bft) 94,44 %
18.04.2020 19:44 16,2 C 15,0 C 14,4 C 78 % 1016,1 hPa 0,0 l/m 0 min 0 min 36 W/m 6,4 km/h (2 Bft) 96,00 %
18.04.2020 19:46 16,2 C 15,0 C 14,4 C 78 % 1016,1 hPa 0,0 l/m 0 min 0 min 36 W/m 6,4 km/h (2 Bft) 97,92 %
18.04.2020 19:48 16,1 C 15,0 C 14,4 C 78 % 1016,1 hPa 0,0 l/m 0 min 0 min 37 W/m 3,2 km/h (1 Bft) 48,57 %
18.04.2020 19:50 16,1 C 15,0 C 14,4 C 78 % 1016,1 hPa 0,0 l/m 0 min 0 min 36 W/m 3,2 km/h (1 Bft) 91,84 %
18.04.2020 19:52 16,1 C 15,0 C 14,4 C 78 % 1016,1 hPa 0,0 l/m 0 min 0 min 31 W/m 6,4 km/h (2 Bft) 96,00 %
18.04.2020 19:54 16,1 C 15,0 C 14,4 C 78 % 1016,1 hPa 0,0 l/m 0 min 0 min 30 W/m 3,2 km/h (1 Bft) 93,88 %
18.04.2020 19:56 16,1 C 15,0 C 14,4 C 78 % 1016,1 hPa 0,0 l/m 0 min 0 min 27 W/m 0,0 km/h (0 Bft) 91,43 %
18.04.2020 19:58 16,0 C 15,0 C 14,4 C 79 % 1016,1 hPa 0,0 l/m 0 min 0 min 25 W/m 0,0 km/h (0 Bft) 94,44 %
18.04.2020 20:00 16,0 C 14,4 C 13,9 C 79 % 1016,1 hPa 0,0 l/m 0 min 0 min 23 W/m 3,2 km/h (1 Bft) 94,00 %
18.04.2020 20:02 15,9 C 14,4 C 14,4 C 79 % 1016,1 hPa 0,0 l/m 0 min 0 min 20 W/m 3,2 km/h (1 Bft) 91,67 %
18.04.2020 20:04 15,9 C 14,4 C 14,4 C 79 % 1016,1 hPa 0,0 l/m 0 min 0 min 12 W/m 3,2 km/h (1 Bft) 94,29 %
18.04.2020 20:06 15,9 C 14,4 C 13,9 C 79 % 1016,1 hPa 0,0 l/m 0 min 0 min 12 W/m 0,0 km/h (0 Bft) 90,74 %
18.04.2020 20:08 15,9 C 14,4 C 14,4 C 79 % 1016,1 hPa 0,0 l/m 0 min 0 min 12 W/m 3,2 km/h (1 Bft) 93,62 %
18.04.2020 20:10 15,9 C 14,4 C 14,4 C 79 % 1016,1 hPa 0,0 l/m 0 min 0 min 12 W/m 3,2 km/h (1 Bft) 92,00 %
18.04.2020 20:12 15,8 C 14,4 C 14,4 C 79 % 1016,1 hPa 0,0 l/m 0 min 0 min 13 W/m 0,0 km/h (0 Bft) 91,67 %
18.04.2020 20:14 15,8 C 14,4 C 13,9 C 79 % 1016,2 hPa 0,0 l/m 0 min 0 min 14 W/m 0,0 km/h (0 Bft) 93,62 %
18.04.2020 20:16 15,8 C 14,4 C 13,9 C 79 % 1016,2 hPa 0,0 l/m 0 min 0 min 12 W/m 0,0 km/h (0 Bft) 95,74 %
18.04.2020 20:18 15,8 C 14,4 C 13,9 C 79 % 1016,2 hPa 0,0 l/m 0 min 0 min 12 W/m 0,0 km/h (0 Bft) 93,48 %
18.04.2020 20:20 15,8 C 14,4 C 13,9 C 79 % 1016,2 hPa 0,0 l/m 0 min 0 min 12 W/m 9,7 km/h (2 Bft) 95,74 %
18.04.2020 20:22 15,8 C 14,4 C 13,9 C 79 % 1016,2 hPa 0,0 l/m 0 min 0 min 12 W/m 0,0 km/h (0 Bft) 95,74 %
18.04.2020 20:24 15,8 C 14,4 C 13,9 C 79 % 1016,2 hPa 0,0 l/m 0 min 0 min 11 W/m 6,4 km/h (2 Bft) 95,74 %
18.04.2020 20:26 15,7 C 14,4 C 13,9 C 79 % 1016,2 hPa 0,0 l/m 0 min 0 min 9 W/m 0,0 km/h (0 Bft) 93,62 %
18.04.2020 20:28 15,7 C 14,4 C 13,9 C 79 % 1016,2 hPa 0,0 l/m 0 min 0 min 7 W/m 3,2 km/h (1 Bft) 95,74 %
18.04.2020 20:30 15,7 C 14,4 C 13,9 C 80 % 1016,2 hPa 0,0 l/m 0 min 0 min 7 W/m 3,2 km/h (1 Bft) 93,48 %
18.04.2020 20:32 15,7 C 14,4 C 13,9 C 80 % 1016,2 hPa 0,0 l/m 0 min 0 min 5 W/m 0,0 km/h (0 Bft) 95,74 %
18.04.2020 20:34 15,6 C 14,4 C 13,9 C 80 % 1016,1 hPa 0,0 l/m 0 min 0 min 5 W/m 0,0 km/h (0 Bft) 95,74 %
18.04.2020 20:36 15,6 C 13,9 C 13,9 C 80 % 1016,2 hPa 0,0 l/m 0 min 0 min 0 W/m 3,2 km/h (1 Bft) 95,74 %
18.04.2020 20:38 15,6 C 13,9 C 13,3 C 80 % 1016,1 hPa 0,0 l/m 0 min 0 min 0 W/m 3,2 km/h (1 Bft) 97,87 %
18.04.2020 20:40 15,6 C 13,9 C 13,3 C 80 % 1016,2 hPa 0,0 l/m 0 min 0 min 0 W/m 3,2 km/h (1 Bft) 95,74 %
18.04.2020 20:42 15,6 C 13,9 C 13,3 C 80 % 1016,2 hPa 0,0 l/m 0 min 0 min 0 W/m 0,0 km/h (0 Bft) 97,83 %
18.04.2020 20:44 15,5 C 13,9 C 13,3 C 80 % 1016,2 hPa 0,0 l/m 0 min 0 min 0 W/m 0,0 km/h (0 Bft) 97,87 %
18.04.2020 20:46 15,5 C 13,9 C 13,3 C 80 % 1016,1 hPa 0,0 l/m 0 min 0 min 0 W/m 0,0 km/h (0 Bft) 97,87 %
18.04.2020 20:48 15,4 C 13,3 C 12,8 C 80 % 1016,2 hPa 0,0 l/m 0 min 0 min 0 W/m 0,0 km/h (0 Bft) 95,74 %
18.04.2020 20:50 15,4 C 13,3 C 12,8 C 80 % 1016,2 hPa 0,0 l/m 0 min 0 min 0 W/m 0,0 km/h (0 Bft) 97,87 %
18.04.2020 20:52 15,4 C 13,3 C 12,8 C 80 % 1016,2 hPa 0,0 l/m 0 min 0 min 0 W/m 0,0 km/h (0 Bft) 100,00 %
18.04.2020 20:54 15,3 C 13,3 C 12,8 C 80 % 1016,2 hPa 0,0 l/m 0 min 0 min 0 W/m 0,0 km/h (0 Bft) 100,00 %
18.04.2020 20:56 15,3 C 13,3 C 12,2 C 80 % 1016,3 hPa 0,0 l/m 0 min 0 min 0 W/m 3,2 km/h (1 Bft) 100,00 %
18.04.2020 20:58 15,3 C 12,8 C 12,2 C 80 % 1016,3 hPa 0,0 l/m 0 min 0 min 0 W/m 0,0 km/h (0 Bft) 97,87 %
18.04.2020 21:00 15,3 C 12,8 C 12,2 C 80 % 1016,3 hPa 0,0 l/m 0 min 0 min 0 W/m 0,0 km/h (0 Bft) 97,87 %
18.04.2020 21:02 15,2 C 12,8 C 12,2 C 80 % 1016,4 hPa 0,0 l/m 0 min 0 min 0 W/m 0,0 km/h (0 Bft) 100,00 %
18.04.2020 21:04 15,1 C 12,8 C 12,2 C 81 % 1016,4 hPa 0,0 l/m 0 min 0 min 0 W/m 0,0 km/h (0 Bft) 100,00 %
18.04.2020 21:06 15,1 C 12,8 C 11,7 C 81 % 1016,5 hPa 0,0 l/m 0 min 0 min 0 W/m 0,0 km/h (0 Bft) 95,74 %
18.04.2020 21:08 15,1 C 12,8 C 11,7 C 81 % 1016,5 hPa 0,0 l/m 0 min 0 min 0 W/m 0,0 km/h (0 Bft) 97,87 %
18.04.2020 21:10 15,0 C 12,8 C 11,7 C 81 % 1016,5 hPa 0,0 l/m 0 min 0 min 0 W/m 0,0 km/h (0 Bft) 100,00 %
18.04.2020 21:12 14,9 C 12,8 C 11,7 C 81 % 1016,5 hPa 0,0 l/m 0 min 0 min 0 W/m 0,0 km/h (0 Bft) 100,00 %
18.04.2020 21:14 14,9 C 12,8 C 11,7 C 81 % 1016,5 hPa 0,0 l/m 0 min 0 min 0 W/m 0,0 km/h (0 Bft) 100,00 %
18.04.2020 21:16 14,8 C 12,2 C 11,7 C 81 % 1016,5 hPa 0,0 l/m 0 min 0 min 0 W/m 0,0 km/h (0 Bft) 97,87 %
18.04.2020 21:18 14,8 C 12,2 C 11,1 C 81 % 1016,5 hPa 0,0 l/m 0 min 0 min 0 W/m 0,0 km/h (0 Bft) 100,00 %
18.04.2020 21:20 14,8 C 12,2 C 11,1 C 81 % 1016,5 hPa 0,0 l/m 0 min 0 min 0 W/m 0,0 km/h (0 Bft) 100,00 %
18.04.2020 21:22 14,7 C 12,2 C 11,1 C 81 % 1016,5 hPa 0,0 l/m 0 min 0 min 0 W/m 0,0 km/h (0 Bft) 100,00 %
18.04.2020 21:24 14,6 C 11,7 C 11,1 C 81 % 1016,5 hPa 0,0 l/m 0 min 0 min 0 W/m 0,0 km/h (0 Bft) 100,00 %
18.04.2020 21:26 14,6 C 11,7 C 11,1 C 81 % 1016,5 hPa 0,0 l/m 0 min 0 min 0 W/m 0,0 km/h (0 Bft) 100,00 %
18.04.2020 21:28 14,5 C 11,7 C 11,1 C 81 % 1016,5 hPa 0,0 l/m 0 min 0 min 0 W/m 0,0 km/h (0 Bft) 100,00 %
18.04.2020 21:30 14,4 C 11,7 C 10,6 C 82 % 1016,6 hPa 0,0 l/m 0 min 0 min 0 W/m 0,0 km/h (0 Bft) 100,00 %
18.04.2020 21:32 14,3 C 11,7 C 10,6 C 82 % 1016,6 hPa 0,0 l/m 0 min 0 min 0 W/m 0,0 km/h (0 Bft) 100,00 %
18.04.2020 21:34 14,3 C 11,7 C 10,6 C 82 % 1016,6 hPa 0,0 l/m 0 min 0 min 0 W/m 0,0 km/h (0 Bft) 97,87 %
18.04.2020 21:36 14,3 C 11,7 C 10,6 C 82 % 1016,7 hPa 0,0 l/m 0 min 0 min 0 W/m 0,0 km/h (0 Bft) 100,00 %
18.04.2020 21:38 14,3 C 11,1 C 10,6 C 82 % 1016,7 hPa 0,0 l/m 0 min 0 min 0 W/m 0,0 km/h (0 Bft) 100,00 %
18.04.2020 21:40 14,2 C 11,1 C 10,6 C 82 % 1016,7 hPa 0,0 l/m 0 min 0 min 0 W/m 0,0 km/h (0 Bft) 100,00 %
18.04.2020 21:42 14,1 C 11,1 C 10,6 C 83 % 1016,7 hPa 0,0 l/m 0 min 0 min 0 W/m 0,0 km/h (0 Bft) 100,00 %
18.04.2020 21:44 14,1 C 11,1 C 10,6 C 83 % 1016,8 hPa 0,0 l/m 0 min 0 min 0 W/m 0,0 km/h (0 Bft) 100,00 %
18.04.2020 21:46 14,0 C 11,1 C 10,6 C 83 % 1016,8 hPa 0,0 l/m 0 min 0 min 0 W/m 0,0 km/h (0 Bft) 97,87 %
18.04.2020 21:48 13,9 C 11,1 C 10,6 C 83 % 1016,8 hPa 0,0 l/m 0 min 0 min 0 W/m 0,0 km/h (0 Bft) 100,00 %
18.04.2020 21:50 13,9 C 11,7 C 10,0 C 83 % 1016,8 hPa 0,0 l/m 0 min 0 min 0 W/m 0,0 km/h (0 Bft) 100,00 %
18.04.2020 21:52 13,8 C 11,7 C 10,0 C 83 % 1016,8 hPa 0,0 l/m 0 min 0 min 0 W/m 0,0 km/h (0 Bft) 100,00 %
18.04.2020 21:54 13,7 C 11,7 C 10,6 C 84 % 1016,9 hPa 0,0 l/m 0 min 0 min 0 W/m 0,0 km/h (0 Bft) 100,00 %
18.04.2020 21:56 13,7 C 11,7 C 10,6 C 84 % 1016,9 hPa 0,0 l/m 0 min 0 min 0 W/m 0,0 km/h (0 Bft) 100,00 %
18.04.2020 21:58 13,6 C 11,1 C 10,6 C 84 % 1017,0 hPa 0,0 l/m 0 min 0 min 0 W/m 0,0 km/h (0 Bft) 100,00 %
18.04.2020 22:00 13,6 C 11,1 C 10,6 C 84 % 1017,0 hPa 0,0 l/m 0 min 0 min 0 W/m 0,0 km/h (0 Bft) 97,87 %
18.04.2020 22:02 13,6 C 11,7 C 10,6 C 84 % 1016,9 hPa 0,0 l/m 0 min 0 min 0 W/m 0,0 km/h (0 Bft) 97,87 %
18.04.2020 22:04 13,5 C 11,7 C 10,6 C 84 % 1016,9 hPa 0,0 l/m 0 min 0 min 0 W/m 0,0 km/h (0 Bft) 97,87 %
18.04.2020 22:06 13,4 C 11,7 C 10,6 C 84 % 1016,9 hPa 0,0 l/m 0 min 0 min 0 W/m 0,0 km/h (0 Bft) 100,00 %
18.04.2020 22:08 13,4 C 11,1 C 10,0 C 85 % 1016,9 hPa 0,0 l/m 0 min 0 min 0 W/m 0,0 km/h (0 Bft) 100,00 %
18.04.2020 22:10 13,3 C 11,1 C 10,0 C 85 % 1017,0 hPa 0,0 l/m 0 min 0 min 0 W/m 0,0 km/h (0 Bft) 97,87 %
18.04.2020 22:12 13,3 C 11,1 C 10,0 C 85 % 1017,0 hPa 0,0 l/m 0 min 0 min 0 W/m 0,0 km/h (0 Bft) 97,87 %
18.04.2020 22:14 13,2 C 11,1 C 10,0 C 85 % 1017,0 hPa 0,0 l/m 0 min 0 min 0 W/m 0,0 km/h (0 Bft) 97,87 %
18.04.2020 22:16 13,2 C 11,1 C 10,0 C 85 % 1017,0 hPa 0,0 l/m 0 min 0 min 0 W/m 0,0 km/h (0 Bft) 95,74 %
18.04.2020 22:18 13,2 C 11,1 C 10,0 C 85 % 1017,0 hPa 0,0 l/m 0 min 0 min 0 W/m 0,0 km/h (0 Bft) 97,87 %
18.04.2020 22:20 13,1 C 11,1 C 10,0 C 85 % 1017,0 hPa 0,0 l/m 0 min 0 min 0 W/m 0,0 km/h (0 Bft) 97,83 %
18.04.2020 22:22 13,1 C 11,1 C 10,0 C 85 % 1017,0 hPa 0,0 l/m 0 min 0 min 0 W/m 0,0 km/h (0 Bft) 97,87 %
18.04.2020 22:24 13,0 C 11,1 C 10,0 C 85 % 1017,0 hPa 0,0 l/m 0 min 0 min 0 W/m 0,0 km/h (0 Bft) 95,74 %
18.04.2020 22:26 12,9 C 10,6 C 10,0 C 85 % 1017,0 hPa 0,0 l/m 0 min 0 min 0 W/m 0,0 km/h (0 Bft) 97,87 %
18.04.2020 22:28 12,9 C 11,1 C 10,0 C 86 % 1016,9 hPa 0,0 l/m 0 min 0 min 0 W/m 0,0 km/h (0 Bft) 97,87 %
18.04.2020 22:30 12,8 C 11,1 C 10,0 C 86 % 1016,9 hPa 0,0 l/m 0 min 0 min 0 W/m 0,0 km/h (0 Bft) 93,62 %
18.04.2020 22:32 12,8 C 10,6 C 10,0 C 86 % 1016,9 hPa 0,0 l/m 0 min 0 min 0 W/m 0,0 km/h (0 Bft) 95,65 %
18.04.2020 22:34 12,7 C 11,1 C 10,0 C 86 % 1017,0 hPa 0,0 l/m 0 min 0 min 0 W/m 0,0 km/h (0 Bft) 95,74 %
18.04.2020 22:36 12,7 C 11,1 C 10,0 C 86 % 1017,0 hPa 0,0 l/m 0 min 0 min 0 W/m 0,0 km/h (0 Bft) 93,62 %
18.04.2020 22:38 12,7 C 11,1 C 10,0 C 86 % 1017,0 hPa 0,0 l/m 0 min 0 min 0 W/m 0,0 km/h (0 Bft) 95,74 %
18.04.2020 22:40 12,6 C 11,1 C 10,0 C 86 % 1017,0 hPa 0,0 l/m 0 min 0 min 0 W/m 0,0 km/h (0 Bft) 95,74 %
18.04.2020 22:42 12,6 C 10,6 C 9,4 C 86 % 1016,9 hPa 0,0 l/m 0 min 0 min 0 W/m 0,0 km/h (0 Bft) 95,74 %
18.04.2020 22:44 12,6 C 10,6 C 9,4 C 86 % 1016,9 hPa 0,0 l/m 0 min 0 min 0 W/m 0,0 km/h (0 Bft) 95,65 %
18.04.2020 22:46 12,5 C 10,6 C 9,4 C 86 % 1016,9 hPa 0,0 l/m 0 min 0 min 0 W/m 0,0 km/h (0 Bft) 95,74 %
18.04.2020 22:48 12,5 C 10,6 C 9,4 C 86 % 1016,9 hPa 0,0 l/m 0 min 0 min 0 W/m 0,0 km/h (0 Bft) 97,87 %
18.04.2020 22:50 12,4 C 10,6 C 9,4 C 86 % 1016,9 hPa 0,0 l/m 0 min 0 min 0 W/m 0,0 km/h (0 Bft) 97,87 %
18.04.2020 22:52 12,4 C 10,6 C 9,4 C 86 % 1016,9 hPa 0,0 l/m 0 min 0 min 0 W/m 0,0 km/h (0 Bft) 97,87 %
18.04.2020 22:54 12,4 C 10,6 C 9,4 C 87 % 1016,9 hPa 0,0 l/m 0 min 0 min 0 W/m 0,0 km/h (0 Bft) 95,65 %
18.04.2020 22:56 12,3 C 10,6 C 9,4 C 87 % 1016,9 hPa 0,0 l/m 0 min 0 min 0 W/m 0,0 km/h (0 Bft) 97,87 %
18.04.2020 22:58 12,3 C 10,6 C 9,4 C 86 % 1016,9 hPa 0,0 l/m 0 min 0 min 0 W/m 0,0 km/h (0 Bft) 97,87 %
18.04.2020 23:00 12,3 C 10,6 C 9,4 C 86 % 1016,8 hPa 0,0 l/m 0 min 0 min 0 W/m 0,0 km/h (0 Bft) 93,62 %
18.04.2020 23:02 12,2 C 10,6 C 9,4 C 86 % 1016,9 hPa 0,0 l/m 0 min 0 min 0 W/m 0,0 km/h (0 Bft) 97,87 %
18.04.2020 23:04 12,2 C 10,6 C 9,4 C 87 % 1016,9 hPa 0,0 l/m 0 min 0 min 0 W/m 0,0 km/h (0 Bft) 97,87 %
18.04.2020 23:06 12,2 C 10,0 C 9,4 C 87 % 1016,9 hPa 0,0 l/m 0 min 0 min 0 W/m 0,0 km/h (0 Bft) 97,83 %
18.04.2020 23:08 12,2 C 10,0 C 9,4 C 87 % 1016,9 hPa 0,0 l/m 0 min 0 min 0 W/m 0,0 km/h (0 Bft) 97,87 %
18.04.2020 23:10 12,1 C 10,0 C 9,4 C 87 % 1016,9 hPa 0,0 l/m 0 min 0 min 0 W/m 0,0 km/h (0 Bft) 97,87 %
18.04.2020 23:12 12,1 C 10,0 C 9,4 C 87 % 1016,9 hPa 0,0 l/m 0 min 0 min 0 W/m 0,0 km/h (0 Bft) 95,74 %
18.04.2020 23:14 12,1 C 10,0 C 9,4 C 87 % 1016,9 hPa 0,0 l/m 0 min 0 min 0 W/m 0,0 km/h (0 Bft) 97,87 %
18.04.2020 23:16 12,0 C 10,0 C 9,4 C 87 % 1017,0 hPa 0,0 l/m 0 min 0 min 0 W/m 0,0 km/h (0 Bft) 97,87 %
18.04.2020 23:18 12,0 C 10,0 C 9,4 C 87 % 1017,0 hPa 0,0 l/m 0 min 0 min 0 W/m 0,0 km/h (0 Bft) 97,83 %
18.04.2020 23:20 11,9 C 10,0 C 9,4 C 87 % 1016,9 hPa 0,0 l/m 0 min 0 min 0 W/m 0,0 km/h (0 Bft) 97,87 %
18.04.2020 23:22 11,9 C 10,0 C 9,4 C 87 % 1016,9 hPa 0,0 l/m 0 min 0 min 0 W/m 0,0 km/h (0 Bft) 97,87 %
18.04.2020 23:24 11,9 C 10,0 C 9,4 C 87 % 1016,9 hPa 0,0 l/m 0 min 0 min 0 W/m 0,0 km/h (0 Bft) 97,87 %
18.04.2020 23:26 11,8 C 10,0 C 8,9 C 87 % 1016,9 hPa 0,0 l/m 0 min 0 min 0 W/m 0,0 km/h (0 Bft) 95,74 %
18.04.2020 23:28 11,8 C 10,0 C 8,9 C 88 % 1016,9 hPa 0,0 l/m 0 min 0 min 0 W/m 0,0 km/h (0 Bft) 97,87 %
18.04.2020 23:30 11,8 C 10,0 C 8,9 C 88 % 1016,9 hPa 0,0 l/m 0 min 0 min 0 W/m 0,0 km/h (0 Bft) 97,83 %
18.04.2020 23:32 11,8 C 10,0 C 8,9 C 88 % 1016,9 hPa 0,0 l/m 0 min 0 min 0 W/m 0,0 km/h (0 Bft) 100,00 %
18.04.2020 23:34 11,7 C 10,0 C 8,9 C 88 % 1016,8 hPa 0,0 l/m 0 min 0 min 0 W/m 0,0 km/h (0 Bft) 100,00 %
18.04.2020 23:36 11,7 C 10,0 C 8,9 C 88 % 1016,8 hPa 0,0 l/m 0 min 0 min 0 W/m 0,0 km/h (0 Bft) 100,00 %
18.04.2020 23:38 11,7 C 10,0 C 8,9 C 88 % 1016,8 hPa 0,0 l/m 0 min 0 min 0 W/m 0,0 km/h (0 Bft) 100,00 %
18.04.2020 23:40 11,6 C 10,0 C 8,9 C 88 % 1016,8 hPa 0,0 l/m 0 min 0 min 0 W/m 0,0 km/h (0 Bft) 95,65 %
18.04.2020 23:42 11,6 C 10,0 C 8,9 C 88 % 1016,8 hPa 0,0 l/m 0 min 0 min 0 W/m 0,0 km/h (0 Bft) 100,00 %
18.04.2020 23:44 11,6 C 10,0 C 8,9 C 88 % 1016,8 hPa 0,0 l/m 0 min 0 min 0 W/m 0,0 km/h (0 Bft) 100,00 %
18.04.2020 23:46 11,6 C 10,0 C 8,9 C 88 % 1016,8 hPa 0,0 l/m 0 min 0 min 0 W/m 0,0 km/h (0 Bft) 100,00 %
18.04.2020 23:48 11,5 C 9,4 C 8,9 C 88 % 1016,7 hPa 0,0 l/m 0 min 0 min 0 W/m 0,0 km/h (0 Bft) 100,00 %
18.04.2020 23:50 11,5 C 9,4 C 8,9 C 88 % 1016,7 hPa 0,0 l/m 0 min 0 min 0 W/m 0,0 km/h (0 Bft) 100,00 %
18.04.2020 23:52 11,4 C 9,4 C 8,9 C 88 % 1016,8 hPa 0,0 l/m 0 min 0 min 0 W/m 0,0 km/h (0 Bft) 100,00 %
18.04.2020 23:54 11,4 C 9,4 C 8,3 C 88 % 1016,8 hPa 0,0 l/m 0 min 0 min 0 W/m 0,0 km/h (0 Bft) 100,00 %
18.04.2020 23:56 11,4 C 9,4 C 8,3 C 88 % 1016,7 hPa 0,0 l/m 0 min 0 min 0 W/m 0,0 km/h (0 Bft) 100,00 %
18.04.2020 23:58 11,3 C 9,4 C 8,3 C 88 % 1016,7 hPa 0,0 l/m 0 min 0 min 0 W/m 0,0 km/h (0 Bft) 100,00 %
_ Min-Zeit 06:58 06:16 06:12 13:08 05:50 - - - - 00:14 19:48
Minimum _ 8,6 C 7,2 C 6,7 C 57 % 1014,2 hPa - - - - 0,0 km/h (0 Bft) 48,57 %
_ Max-Zeit 13:02 12:54 12:54 23:28 21:58 16:02 06:52 13:52 12:56 14:24 00:00
Maximum _ 20,1 C 26,7 C 21,7 C 88 % 1017,0 hPa 0,2 l/m 2 min 2 min 798 W/m 22,5 km/h
W-SW (4 Bft)
100,00 %
Durchschnitt _ 14,1 C 13,8 C 12,9 C 73 % 1015,5 hPa #0,8 l/m #4:20 h #36 min. 224 W/m 3,2 km/h (1 Bft) 97,42 %
© 2020 W. Hausmann